Darstellungsparameter: Aktuell verwendete Einstellungen:
Skalierung der Graphiken ... ?
xyx+y,   Skalierungsfaktor:      Skalierung: Modus: x, Faktor: 1
Darstellungszeitraum ... ?
Vom - - bis: - -   Zeitraum: 24.03.2003 - 02.04.2003
Min/Max/Avg-Anzeige ... ?
Zeige MMA aktuell
Zeige MMA Monat
Zeige MMA alles
Zeige --A aktuell
Zeige --A Monat
Zeige --A alles
Keine MMA-Anzeige
MMA:
Average (ber die Originaldaten)
MMA-Basis: 24.03.2003 - 02.04.2003
Quicknavigation für Darstellung... ?
Tage:      1T, 2T, 3T, 5T -1T -2T -3T -5T +1T +2T +3T +5T
Wochen: 1W, 2W, 3W -1W -2W -3W +1W +2W +3W
Monate: 1M, 3M, 6M -1M -3M -6M +1M +3M +6M
Jahre:    1J, 3J, 5J, 10J -1J -3J -5J -10J +1J +3J +5J +10J
Nutze für die Darstellung ... ?
Originaldaten oder Mittelwerte auf ...
Stundenbasis Tagesbasis Wochenbasis
Monatsbasis Jahresbasis      Datenbasis: Original-Daten
Darstellen als:
Statistik (Auto) Statistik J:M      Darstellung:
Zur Graphik,    zurück zur Übersicht aller Sensoren.
 
Tabellarische Datenbersicht: ?
 
Sensor: Nr:Datum:Temp:Abs-Feuchte:Windchill:Wind:
Aussen-T/F 1 24-03-2003 00:02:14 4.4 C 3.07 g/m*3 4.4 C 0 km/h
2 24-03-2003 00:14:14 4.2 C 3.03 g/m*3 4.2 C 0 km/h
3 24-03-2003 00:26:14 4.1 C 3.01 g/m*3 4.1 C 0 km/h
4 24-03-2003 00:38:14 3.6 C 2.97 g/m*3 3.6 C 0 km/h
5 24-03-2003 00:50:14 3.5 C 3.01 g/m*3 3.5 C 0 km/h
6 24-03-2003 01:02:14 3.3 C 3.03 g/m*3 3.3 C 0 km/h
7 24-03-2003 01:14:14 2.8 C 3.11 g/m*3 2.8 C 0 km/h
8 24-03-2003 01:26:14 2.6 C 3.13 g/m*3 2.6 C 0 km/h
9 24-03-2003 01:38:14 2.4 C 3.14 g/m*3 2.4 C 0 km/h
10 24-03-2003 01:50:14 2.4 C 3.08 g/m*3 2.4 C 0 km/h
11 24-03-2003 02:02:14 2.2 C 3.1 g/m*3 2.2 C 0 km/h
12 24-03-2003 02:14:14 2 C 3.11 g/m*3 2 C 0 km/h
13 24-03-2003 02:26:14 2.1 C 3.19 g/m*3 2.1 C 0 km/h
14 24-03-2003 02:38:14 2 C 3.11 g/m*3 2 C 0 km/h
15 24-03-2003 02:50:14 1.6 C 3.14 g/m*3 1.6 C 0 km/h
16 24-03-2003 03:02:14 0.9 C 3.09 g/m*3 0.9 C 0 km/h
17 24-03-2003 03:14:14 1.3 C 3.23 g/m*3 1.3 C 0 km/h
18 24-03-2003 03:26:14 1 C 3.17 g/m*3 1 C 0 km/h
19 24-03-2003 03:38:14 1.1 C 3.19 g/m*3 1.1 C 0 km/h
20 24-03-2003 03:50:14 1 C 3.17 g/m*3 1 C 0 km/h
21 24-03-2003 04:02:14 1 C 3.22 g/m*3 1 C 0 km/h
22 24-03-2003 04:14:14 0.8 C 3.17 g/m*3 0.8 C 0 km/h
23 24-03-2003 04:26:14 0.5 C 3.26 g/m*3 0.5 C 0 km/h
24 24-03-2003 04:38:14 0.5 C 3.36 g/m*3 0.5 C 0 km/h
25 24-03-2003 04:50:14 0.3 C 3.31 g/m*3 0.3 C 0 km/h
Sensor: Nr:Datum:Temp:Abs-Feuchte:Windchill:Wind:
Aussen-T/F 26 24-03-2003 05:02:14 0 C 3.25 g/m*3 0 C 0 km/h
27 24-03-2003 05:14:14 -0.2 C 3.2 g/m*3 -0.2 C 0 km/h
28 24-03-2003 05:26:14 -0.3 C 3.18 g/m*3 -0.3 C 0 km/h
29 24-03-2003 05:38:14 -0.3 C 3.23 g/m*3 -0.3 C 0 km/h
30 24-03-2003 05:50:14 -0.4 C 3.2 g/m*3 -0.4 C 0 km/h
31 24-03-2003 06:02:14 -0.4 C 3.25 g/m*3 -0.4 C 0 km/h
32 24-03-2003 06:14:14 -0.6 C 3.16 g/m*3 -0.6 C 0 km/h
33 24-03-2003 06:26:14 -0.8 C 3.12 g/m*3 -0.8 C 0 km/h
34 24-03-2003 06:38:14 -0.9 C 3.14 g/m*3 -0.9 C 0 km/h
35 24-03-2003 06:50:14 -0.6 C 3.25 g/m*3 -0.6 C 0 km/h
36 24-03-2003 07:02:14 -0.6 C 3.21 g/m*3 -0.6 C 0 km/h
37 24-03-2003 07:14:14 -0.4 C 3.35 g/m*3 -0.4 C 0 km/h
38 24-03-2003 07:26:14 -0.5 C 3.28 g/m*3 -0.5 C 0 km/h
39 24-03-2003 07:38:14 -0.5 C 3.28 g/m*3 -0.5 C 0 km/h
40 24-03-2003 07:50:14 -0.3 C 3.32 g/m*3 -0.3 C 0 km/h
41 24-03-2003 08:02:14 -0.2 C 3.35 g/m*3 -0.2 C 0 km/h
42 24-03-2003 08:14:14 0.1 C 3.37 g/m*3 0.1 C 0 km/h
43 24-03-2003 08:26:14 0.4 C 3.44 g/m*3 0.4 C 0 km/h
44 24-03-2003 08:38:15 0.9 C 3.51 g/m*3 0.9 C 0 km/h
45 24-03-2003 08:50:15 1.3 C 3.44 g/m*3 1.3 C 0 km/h
46 24-03-2003 09:02:15 2.3 C 3.46 g/m*3 2.3 C 0 km/h
47 24-03-2003 09:14:15 3.2 C 3.43 g/m*3 3.2 C 0 km/h
48 24-03-2003 09:26:15 3.9 C 3.54 g/m*3 3.9 C 0 km/h
49 24-03-2003 09:38:15 4.6 C 3.57 g/m*3 4.6 C 0 km/h
50 24-03-2003 09:50:15 5.5 C 3.51 g/m*3 5.5 C 0 km/h
Sensor: Nr:Datum:Temp:Abs-Feuchte:Windchill:Wind:
Aussen-T/F 51 24-03-2003 10:02:15 6.2 C 3.6 g/m*3 6.2 C 0 km/h
52 24-03-2003 10:14:15 7.4 C 3.66 g/m*3 7.4 C 0 km/h
53 24-03-2003 10:26:15 8.3 C 3.71 g/m*3 8.3 C 0 km/h
54 24-03-2003 10:38:16 9.1 C 3.73 g/m*3 9.1 C 0 km/h
55 24-03-2003 10:50:16 10.1 C 3.88 g/m*3 10.1 C 0 km/h
56 24-03-2003 11:02:14 11.5 C 3.93 g/m*3 11.5 C 0 km/h
57 24-03-2003 11:14:14 12.5 C 3.85 g/m*3 12.5 C 0 km/h
58 24-03-2003 11:26:14 13.5 C 4.09 g/m*3 13.5 C 0 km/h
59 24-03-2003 11:38:16 14.5 C 3.73 g/m*3 14.5 C 0 km/h
60 24-03-2003 11:50:16 15.4 C 3.68 g/m*3 15.4 C 0 km/h
61 24-03-2003 12:02:14 16.6 C 3.81 g/m*3 16.6 C 0 km/h
62 24-03-2003 12:14:14 17.7 C 3.92 g/m*3 17.7 C 0 km/h
63 24-03-2003 12:26:14 18.5 C 3.8 g/m*3 18.5 C 0 km/h
64 24-03-2003 12:38:14 18.9 C 3.73 g/m*3 18.9 C 0 km/h
65 24-03-2003 12:50:14 18.9 C 3.73 g/m*3 18.9 C 0 km/h
66 24-03-2003 13:02:15 19 C 3.59 g/m*3 19 C 0 km/h
67 24-03-2003 13:14:15 19.1 C 3.44 g/m*3 19.1 C 0 km/h
68 24-03-2003 13:26:15 19.2 C 3.46 g/m*3 19.2 C 0 km/h
69 24-03-2003 13:38:15 19.7 C 3.57 g/m*3 19.7 C 0 km/h
70 24-03-2003 13:50:15 20.1 C 3.48 g/m*3 20.1 C 0 km/h
71 24-03-2003 14:02:15 20.2 C 3.67 g/m*3 20.2 C 0 km/h
72 24-03-2003 14:14:15 20.4 C 3.54 g/m*3 20.4 C 0 km/h
73 24-03-2003 14:26:15 20.5 C 3.56 g/m*3 20.5 C 0 km/h
74 24-03-2003 14:38:14 20.8 C 3.62 g/m*3 20.8 C 0 km/h
75 24-03-2003 14:50:14 21.2 C 3.71 g/m*3 21.2 C 0 km/h
Sensor: Nr:Datum:Temp:Abs-Feuchte:Windchill:Wind:
Aussen-T/F 76 24-03-2003 15:02:14 21.3 C 3.73 g/m*3 21.3 C 0 km/h
77 24-03-2003 15:14:14 21.6 C 3.79 g/m*3 21.6 C 0 km/h
78 24-03-2003 15:26:14 21.7 C 3.82 g/m*3 21.7 C 0 km/h
79 24-03-2003 15:38:14 21.7 C 3.82 g/m*3 21.7 C 0 km/h
80 24-03-2003 15:50:14 21.7 C 3.82 g/m*3 21.7 C 0 km/h
81 24-03-2003 16:02:14 22 C 3.88 g/m*3 22 C 0 km/h
82 24-03-2003 16:14:14 21.7 C 3.82 g/m*3 21.7 C 0 km/h
83 24-03-2003 16:26:14 21.6 C 3.79 g/m*3 21.6 C 0 km/h
84 24-03-2003 16:38:14 21.6 C 3.79 g/m*3 21.6 C 0 km/h
85 24-03-2003 16:50:14 21.6 C 3.79 g/m*3 21.6 C 0 km/h
86 24-03-2003 17:02:15 21.5 C 3.77 g/m*3 21.5 C 0 km/h
87 24-03-2003 17:14:15 21.3 C 3.73 g/m*3 21.3 C 0 km/h
88 24-03-2003 17:26:15 21 C 3.66 g/m*3 21 C 0 km/h
89 24-03-2003 17:38:15 20.8 C 3.62 g/m*3 20.8 C 0 km/h
90 24-03-2003 17:50:15 20.7 C 3.78 g/m*3 20.7 C 0 km/h
91 24-03-2003 18:02:14 20.2 C 4.02 g/m*3 20.2 C 0 km/h
92 24-03-2003 18:14:14 19.5 C 4.2 g/m*3 19.5 C 0 km/h
93 24-03-2003 18:26:14 18.2 C 4.51 g/m*3 18.2 C 0 km/h
94 24-03-2003 18:38:13 17.1 C 4.51 g/m*3 17.1 C 0 km/h
95 24-03-2003 18:50:13 16.2 C 4.41 g/m*3 16.2 C 0 km/h
96 24-03-2003 19:02:14 15.8 C 4.58 g/m*3 15.8 C 0 km/h
97 24-03-2003 19:14:14 15.5 C 4.63 g/m*3 15.5 C 0 km/h
98 24-03-2003 19:26:14 15.6 C 4.65 g/m*3 15.6 C 0 km/h
99 24-03-2003 19:38:14 15.2 C 4.67 g/m*3 15.2 C 0 km/h
100 24-03-2003 19:50:14 15.2 C 4.67 g/m*3 15.2 C 0 km/h
Sensor: Nr:Datum:Temp:Abs-Feuchte:Windchill:Wind:
Aussen-T/F 101 24-03-2003 20:02:14 14.6 C 4.88 g/m*3 14.6 C 0 km/h
102 24-03-2003 20:14:14 14 C 4.82 g/m*3 14 C 0 km/h
103 24-03-2003 20:26:14 13.6 C 4.83 g/m*3 13.6 C 0 km/h
104 24-03-2003 20:38:14 13.2 C 4.82 g/m*3 13.2 C 0 km/h
105 24-03-2003 20:50:14 13.1 C 4.91 g/m*3 13.1 C 0 km/h
106 24-03-2003 21:02:15 12.9 C 4.85 g/m*3 12.9 C 0 km/h
107 24-03-2003 21:14:15 12.5 C 4.84 g/m*3 12.5 C 0 km/h
108 24-03-2003 21:26:15 12.2 C 4.86 g/m*3 12.2 C 0 km/h
109 24-03-2003 21:38:13 11.8 C 4.95 g/m*3 11.8 C 0 km/h
110 24-03-2003 21:50:13 11.9 C 4.87 g/m*3 11.9 C 0 km/h
111 24-03-2003 22:03:16 11.8 C 4.84 g/m*3 11.8 C 0 km/h
112 24-03-2003 22:15:16 11.4 C 4.82 g/m*3 11.4 C 0 km/h
113 24-03-2003 22:27:16 11 C 4.8 g/m*3 11 C 0 km/h
114 24-03-2003 22:39:16 10.8 C 4.94 g/m*3 10.8 C 0 km/h
115 24-03-2003 22:51:16 10.2 C 4.95 g/m*3 10.2 C 0 km/h
116 24-03-2003 23:03:16 9.8 C 5.01 g/m*3 9.8 C 0 km/h
117 24-03-2003 23:15:16 9.9 C 5.04 g/m*3 9.9 C 0 km/h
118 24-03-2003 23:27:16 9.6 C 4.95 g/m*3 9.6 C 0 km/h
119 24-03-2003 23:39:16 9.3 C 4.94 g/m*3 9.3 C 0 km/h
120 24-03-2003 23:51:16 9.1 C 4.97 g/m*3 9.1 C 0 km/h
121 25-03-2003 00:03:16 9 C 4.94 g/m*3 9 C 0 km/h
122 25-03-2003 00:15:16 8.6 C 4.98 g/m*3 8.6 C 0 km/h
123 25-03-2003 00:27:16 8.5 C 5.04 g/m*3 8.5 C 0 km/h
124 25-03-2003 00:39:16 8.4 C 5.01 g/m*3 8.4 C 0 km/h
125 25-03-2003 00:51:16 8.1 C 4.99 g/m*3 8.1 C 0 km/h
Sensor: Nr:Datum:Temp:Abs-Feuchte:Windchill:Wind:
Aussen-T/F 126 25-03-2003 01:03:16 7.9 C 5.17 g/m*3 7.9 C 0 km/h
127 25-03-2003 01:15:16 7.8 C 5.14 g/m*3 7.8 C 0 km/h
128 25-03-2003 01:27:16 7.6 C 5.16 g/m*3 7.6 C 0 km/h
129 25-03-2003 01:39:16 7.5 C 5.12 g/m*3 7.5 C 0 km/h
130 25-03-2003 01:51:16 7.5 C 5.04 g/m*3 7.5 C 0 km/h
131 25-03-2003 02:03:16 7.5 C 5.12 g/m*3 7.5 C 0 km/h
132 25-03-2003 02:15:16 7.7 C 5.11 g/m*3 7.7 C 0 km/h
133 25-03-2003 02:27:16 7.9 C 5.09 g/m*3 7.9 C 0 km/h
134 25-03-2003 02:39:16 7.9 C 5.09 g/m*3 7.9 C 0 km/h
135 25-03-2003 02:51:16 8.2 C 5.11 g/m*3 8.2 C 0 km/h
136 25-03-2003 03:03:16 8.2 C 5.11 g/m*3 8.2 C 0 km/h
137 25-03-2003 03:15:16 8.4 C 5.17 g/m*3 8.4 C 0 km/h
138 25-03-2003 03:27:16 8.4 C 5.17 g/m*3 8.4 C 0 km/h
139 25-03-2003 03:39:16 8.3 C 5.23 g/m*3 8.3 C 0 km/h
140 25-03-2003 03:51:16 8.2 C 5.19 g/m*3 8.2 C 0 km/h
141 25-03-2003 04:03:16 8.2 C 5.19 g/m*3 8.2 C 0 km/h
142 25-03-2003 04:15:16 8.1 C 5.16 g/m*3 8.1 C 0 km/h
143 25-03-2003 04:27:16 8.1 C 5.24 g/m*3 8.1 C 0 km/h
144 25-03-2003 04:39:16 8.1 C 5.24 g/m*3 8.1 C 0 km/h
145 25-03-2003 04:51:16 8.1 C 5.24 g/m*3 8.1 C 0 km/h
146 25-03-2003 05:03:16 8.2 C 5.19 g/m*3 8.2 C 0 km/h
147 25-03-2003 05:15:16 8.2 C 5.19 g/m*3 8.2 C 0 km/h
148 25-03-2003 05:27:16 8.1 C 5.24 g/m*3 8.1 C 0 km/h
149 25-03-2003 05:39:16 8.1 C 5.24 g/m*3 8.1 C 0 km/h
150 25-03-2003 05:51:16 8 C 5.29 g/m*3 8 C 0 km/h
Sensor: Nr:Datum:Temp:Abs-Feuchte:Windchill:Wind:
Aussen-T/F 151 25-03-2003 06:03:16 8 C 5.29 g/m*3 8 C 0 km/h
152 25-03-2003 06:15:16 7.9 C 5.34 g/m*3 7.9 C 0 km/h
153 25-03-2003 06:27:16 7.9 C 5.34 g/m*3 7.9 C 0 km/h
154 25-03-2003 06:39:16 8 C 5.29 g/m*3 8 C 0 km/h
155 25-03-2003 06:51:16 8.1 C 5.33 g/m*3 8.1 C 0 km/h
156 25-03-2003 07:03:16 8.2 C 5.44 g/m*3 8.2 C 0 km/h
157 25-03-2003 07:15:16 8 C 5.37 g/m*3 8 C 0 km/h
158 25-03-2003 07:27:16 8.1 C 5.41 g/m*3 8.1 C 0 km/h
159 25-03-2003 07:39:16 8.3 C 5.48 g/m*3 8.3 C 0 km/h
160 25-03-2003 07:51:16 8.6 C 5.5 g/m*3 8.6 C 0 km/h
161 25-03-2003 08:03:16 8.6 C 5.5 g/m*3 8.6 C 0 km/h
162 25-03-2003 08:15:16 8.7 C 5.53 g/m*3 8.7 C 0 km/h
163 25-03-2003 08:27:16 9.1 C 5.5 g/m*3 9.1 C 0 km/h
164 25-03-2003 08:39:16 9.5 C 5.55 g/m*3 9.5 C 0 km/h
165 25-03-2003 08:51:16 9.6 C 5.5 g/m*3 9.6 C 0 km/h
166 25-03-2003 09:03:15 9.8 C 5.57 g/m*3 9.8 C 0 km/h
167 25-03-2003 09:15:15 9.7 C 5.53 g/m*3 9.7 C 0 km/h
168 25-03-2003 09:27:15 10.1 C 5.58 g/m*3 10.1 C 0 km/h
169 25-03-2003 09:39:15 10.4 C 5.49 g/m*3 10.4 C 0 km/h
170 25-03-2003 09:51:15 11 C 5.51 g/m*3 11 C 0 km/h
171 25-03-2003 10:03:16 11.6 C 5.72 g/m*3 11.6 C 0 km/h
172 25-03-2003 10:15:16 12 C 5.54 g/m*3 12 C 0 km/h
173 25-03-2003 10:27:16 12.7 C 5.68 g/m*3 12.7 C 0 km/h
174 25-03-2003 10:39:15 13.2 C 5.74 g/m*3 13.2 C 0 km/h
175 25-03-2003 10:51:15 13.9 C 5.63 g/m*3 13.9 C 0 km/h
Sensor: Nr:Datum:Temp:Abs-Feuchte:Windchill:Wind:
Aussen-T/F 176 25-03-2003 11:03:15 14 C 5.43 g/m*3 14 C 0 km/h
177 25-03-2003 11:15:15 14 C 5.55 g/m*3 14 C 0 km/h
178 25-03-2003 11:27:15 14.5 C 5.72 g/m*3 14.5 C 0 km/h
179 25-03-2003 11:39:16 14.9 C 5.86 g/m*3 14.9 C 0 km/h
180 25-03-2003 11:51:16 14.8 C 5.83 g/m*3 14.8 C 0 km/h
181 25-03-2003 12:03:16 14.7 C 5.92 g/m*3 14.7 C 0 km/h
182 25-03-2003 12:15:16 14.5 C 5.72 g/m*3 14.5 C 0 km/h
183 25-03-2003 12:27:16 13.5 C 6.43 g/m*3 13.5 C 0 km/h
184 25-03-2003 12:39:15 13.7 C 6.16 g/m*3 13.7 C 0 km/h
185 25-03-2003 12:51:15 14.5 C 6.22 g/m*3 14.5 C 0 km/h
186 25-03-2003 13:03:15 15.3 C 6.14 g/m*3 15.3 C 0 km/h
187 25-03-2003 13:15:15 16 C 5.99 g/m*3 16 C 0 km/h
188 25-03-2003 13:27:15 17 C 6.08 g/m*3 17 C 0 km/h
189 25-03-2003 13:39:15 18.3 C 6.25 g/m*3 18.3 C 0 km/h
190 25-03-2003 13:51:15 19.4 C 6.34 g/m*3 19.4 C 0 km/h
191 25-03-2003 14:03:15 19.6 C 6.25 g/m*3 19.6 C 0 km/h
192 25-03-2003 14:15:15 20.3 C 6.51 g/m*3 20.3 C 0 km/h
193 25-03-2003 14:27:15 21.3 C 6.34 g/m*3 21.3 C 0 km/h
194 25-03-2003 14:39:15 22.1 C 6.05 g/m*3 22.1 C 0 km/h
195 25-03-2003 14:51:15 21.9 C 6.18 g/m*3 21.9 C 0 km/h
196 25-03-2003 15:03:15 20.6 C 6.26 g/m*3 20.6 C 0 km/h
197 25-03-2003 15:15:15 21.3 C 6.34 g/m*3 21.3 C 0 km/h
198 25-03-2003 15:27:15 22.5 C 6.19 g/m*3 22.5 C 0 km/h
199 25-03-2003 15:39:15 23 C 6.17 g/m*3 23 C 0 km/h
200 25-03-2003 15:51:15 22.4 C 5.96 g/m*3 22.4 C 0 km/h
Sensor: Nr:Datum:Temp:Abs-Feuchte:Windchill:Wind:
Aussen-T/F 201 25-03-2003 16:03:15 21.3 C 6.15 g/m*3 21.3 C 0 km/h
202 25-03-2003 16:15:15 20.9 C 6.56 g/m*3 20.9 C 0 km/h
203 25-03-2003 16:27:15 19.6 C 6.42 g/m*3 19.6 C 0 km/h
204 25-03-2003 16:39:14 19 C 6.52 g/m*3 19 C 0 km/h
205 25-03-2003 16:51:14 18.4 C 6.61 g/m*3 18.4 C 0 km/h
206 25-03-2003 17:03:15 18 C 6.6 g/m*3 18 C 0 km/h
207 25-03-2003 17:15:15 17.4 C 6.82 g/m*3 17.4 C 0 km/h
208 25-03-2003 17:27:15 16.1 C 7.4 g/m*3 16.1 C 0 km/h
209 25-03-2003 17:39:15 16 C 7.9 g/m*3 16 C 0 km/h
210 25-03-2003 17:51:15 15.8 C 8.21 g/m*3 15.8 C 0 km/h
211 25-03-2003 18:15:14 15 C 8.59 g/m*3 15 C 0 km/h
212 25-03-2003 18:27:14 15.2 C 8.18 g/m*3 15.2 C 0 km/h
213 25-03-2003 18:39:15 14.9 C 8.28 g/m*3 14.9 C 0 km/h
214 25-03-2003 18:51:15 14.6 C 8.38 g/m*3 14.6 C 0 km/h
215 25-03-2003 19:03:14 14 C 8.08 g/m*3 14 C 0 km/h
216 25-03-2003 19:15:14 13.5 C 7.95 g/m*3 13.5 C 0 km/h
217 25-03-2003 19:27:14 13.2 C 7.92 g/m*3 13.2 C 0 km/h
218 25-03-2003 19:39:14 13.2 C 7.69 g/m*3 13.2 C 0 km/h
219 25-03-2003 19:51:14 13.4 C 7.67 g/m*3 13.4 C 0 km/h
220 25-03-2003 20:03:15 13.3 C 7.74 g/m*3 13.3 C 0 km/h
221 25-03-2003 20:15:15 13.4 C 7.79 g/m*3 13.4 C 0 km/h
222 25-03-2003 20:27:15 13.3 C 7.63 g/m*3 13.3 C 0 km/h
223 25-03-2003 20:39:13 13 C 7.48 g/m*3 13 C 0 km/h
224 25-03-2003 20:51:13 12.7 C 7.57 g/m*3 12.7 C 0 km/h
225 25-03-2003 21:03:15 12.4 C 7.54 g/m*3 12.4 C 0 km/h
Sensor: Nr:Datum:Temp:Abs-Feuchte:Windchill:Wind:
Aussen-T/F 226 25-03-2003 21:15:15 12.3 C 7.49 g/m*3 12.3 C 0 km/h
227 25-03-2003 21:27:15 12.4 C 7.65 g/m*3 12.4 C 0 km/h
228 25-03-2003 21:39:15 12.2 C 7.99 g/m*3 12.2 C 0 km/h
229 25-03-2003 21:51:15 12.2 C 8.2 g/m*3 12.2 C 0 km/h
230 25-03-2003 22:04:15 12.1 C 8.26 g/m*3 12.1 C 0 km/h
231 25-03-2003 22:16:15 12.2 C 8.42 g/m*3 12.2 C 0 km/h
232 25-03-2003 22:28:15 12 C 8.42 g/m*3 12 C 0 km/h
233 25-03-2003 22:40:15 11.9 C 8.37 g/m*3 11.9 C 0 km/h
234 25-03-2003 22:52:15 11.7 C 8.58 g/m*3 11.7 C 0 km/h
235 25-03-2003 23:04:15 11.8 C 8.63 g/m*3 11.8 C 0 km/h
236 25-03-2003 23:16:15 11.7 C 8.47 g/m*3 11.7 C 0 km/h
237 25-03-2003 23:28:15 11.4 C 8.31 g/m*3 11.4 C 0 km/h
238 25-03-2003 23:40:15 11.2 C 8.31 g/m*3 11.2 C 0 km/h
239 25-03-2003 23:52:15 11.1 C 8.06 g/m*3 11.1 C 0 km/h
240 26-03-2003 00:04:15 11.1 C 7.96 g/m*3 11.1 C 0 km/h
241 26-03-2003 00:16:15 10.8 C 8.01 g/m*3 10.8 C 0 km/h
242 26-03-2003 00:28:15 10.8 C 8.11 g/m*3 10.8 C 0 km/h
243 26-03-2003 00:40:15 10.6 C 7.81 g/m*3 10.6 C 0 km/h
244 26-03-2003 00:52:15 10.2 C 7.61 g/m*3 10.2 C 0 km/h
245 26-03-2003 01:04:15 10.1 C 7.47 g/m*3 10.1 C 0 km/h
246 26-03-2003 01:16:15 10.1 C 7.66 g/m*3 10.1 C 0 km/h
247 26-03-2003 01:28:15 10.3 C 7.76 g/m*3 10.3 C 0 km/h
248 26-03-2003 01:40:15 10.4 C 7.61 g/m*3 10.4 C 0 km/h
249 26-03-2003 01:52:15 10.4 C 7.61 g/m*3 10.4 C 0 km/h
250 26-03-2003 02:04:15 9.9 C 7.66 g/m*3 9.9 C 0 km/h
Sensor: Nr:Datum:Temp:Abs-Feuchte:Windchill:Wind:
Aussen-T/F 251 26-03-2003 02:16:15 9.9 C 7.84 g/m*3 9.9 C 0 km/h
252 26-03-2003 02:28:15 9.6 C 7.69 g/m*3 9.6 C 0 km/h
253 26-03-2003 02:40:15 9.5 C 7.74 g/m*3 9.5 C 0 km/h
254 26-03-2003 02:52:15 9.5 C 7.74 g/m*3 9.5 C 0 km/h
255 26-03-2003 03:04:15 9.3 C 7.55 g/m*3 9.3 C 0 km/h
256 26-03-2003 03:16:15 9.3 C 7.55 g/m*3 9.3 C 0 km/h
257 26-03-2003 03:28:15 9.3 C 7.55 g/m*3 9.3 C 0 km/h
258 26-03-2003 03:40:15 9.1 C 7.36 g/m*3 9.1 C 0 km/h
259 26-03-2003 03:52:15 9 C 7.32 g/m*3 9 C 0 km/h
260 26-03-2003 04:04:15 8.9 C 7.45 g/m*3 8.9 C 0 km/h
261 26-03-2003 04:16:15 8.9 C 7.53 g/m*3 8.9 C 0 km/h
262 26-03-2003 04:28:15 9 C 7.58 g/m*3 9 C 0 km/h
263 26-03-2003 04:40:15 8.5 C 7.43 g/m*3 8.5 C 0 km/h
264 26-03-2003 04:52:15 8.4 C 7.38 g/m*3 8.4 C 0 km/h
265 26-03-2003 05:04:15 8.4 C 7.38 g/m*3 8.4 C 0 km/h
266 26-03-2003 05:16:15 8 C 7.19 g/m*3 8 C 0 km/h
267 26-03-2003 05:28:15 7.8 C 7.26 g/m*3 7.8 C 0 km/h
268 26-03-2003 05:40:15 7.4 C 7.08 g/m*3 7.4 C 0 km/h
269 26-03-2003 05:52:15 7.2 C 7.06 g/m*3 7.2 C 0 km/h
270 26-03-2003 06:04:15 7.1 C 7.1 g/m*3 7.1 C 0 km/h
271 26-03-2003 06:16:15 7 C 7.13 g/m*3 7 C 0 km/h
272 26-03-2003 06:28:15 6.9 C 7.16 g/m*3 6.9 C 0 km/h
273 26-03-2003 06:40:15 6.9 C 7.24 g/m*3 6.9 C 0 km/h
274 26-03-2003 06:52:15 7.1 C 7.33 g/m*3 7.1 C 0 km/h
275 26-03-2003 07:04:15 7.2 C 7.3 g/m*3 7.2 C 0 km/h
Sensor: Nr:Datum:Temp:Abs-Feuchte:Windchill:Wind:
Aussen-T/F 276 26-03-2003 07:16:15 7.6 C 7.49 g/m*3 7.6 C 0 km/h
277 26-03-2003 07:28:15 8 C 7.61 g/m*3 8 C 0 km/h
278 26-03-2003 07:40:15 8.3 C 7.67 g/m*3 8.3 C 0 km/h
279 26-03-2003 07:52:15 8.3 C 7.42 g/m*3 8.3 C 0 km/h
280 26-03-2003 08:04:14 8.5 C 7.34 g/m*3 8.5 C 0 km/h
281 26-03-2003 08:16:14 8.7 C 7.44 g/m*3 8.7 C 0 km/h
282 26-03-2003 08:28:14 8.9 C 7.45 g/m*3 8.9 C 0 km/h
283 26-03-2003 08:40:16 9.2 C 7.59 g/m*3 9.2 C 0 km/h
284 26-03-2003 08:52:16 9.6 C 7.69 g/m*3 9.6 C 0 km/h
285 26-03-2003 09:04:15 10 C 7.61 g/m*3 10 C 0 km/h
286 26-03-2003 09:16:15 10.3 C 7.66 g/m*3 10.3 C 0 km/h
287 26-03-2003 09:28:15 10.7 C 7.76 g/m*3 10.7 C 0 km/h
288 26-03-2003 09:40:16 11 C 7.71 g/m*3 11 C 0 km/h
289 26-03-2003 09:52:16 11.4 C 7.7 g/m*3 11.4 C 0 km/h
290 26-03-2003 10:04:15 11.4 C 7.7 g/m*3 11.4 C 0 km/h
291 26-03-2003 10:16:15 11.3 C 7.65 g/m*3 11.3 C 0 km/h
292 26-03-2003 10:28:15 11.7 C 7.74 g/m*3 11.7 C 0 km/h
293 26-03-2003 10:40:16 13.1 C 7.76 g/m*3 13.1 C 0 km/h
294 26-03-2003 10:52:16 14.5 C 7.46 g/m*3 14.5 C 0 km/h
295 26-03-2003 11:04:14 15.3 C 7.18 g/m*3 15.3 C 0 km/h
296 26-03-2003 11:16:14 16.8 C 7.29 g/m*3 16.8 C 0 km/h
297 26-03-2003 11:28:14 17.4 C 6.97 g/m*3 17.4 C 0 km/h
298 26-03-2003 11:40:15 17.1 C 6.84 g/m*3 17.1 C 0 km/h
299 26-03-2003 11:52:15 16.2 C 7.03 g/m*3 16.2 C 0 km/h
300 26-03-2003 12:04:14 16.2 C 7.03 g/m*3 16.2 C 0 km/h
Sensor: Nr:Datum:Temp:Abs-Feuchte:Windchill:Wind:
Aussen-T/F 301 26-03-2003 12:16:14 17.7 C 6.94 g/m*3 17.7 C 0 km/h
302 26-03-2003 12:28:14 19.4 C 7.17 g/m*3 19.4 C 0 km/h
303 26-03-2003 12:40:15 20.2 C 6.99 g/m*3 20.2 C 0 km/h
304 26-03-2003 12:52:15 20.1 C 6.78 g/m*3 20.1 C 0 km/h
305 26-03-2003 13:04:14 20.2 C 6.99 g/m*3 20.2 C 0 km/h
306 26-03-2003 13:16:14 19.9 C 7.04 g/m*3 19.9 C 0 km/h
307 26-03-2003 13:28:14 19.8 C 7 g/m*3 19.8 C 0 km/h
308 26-03-2003 13:40:16 20.1 C 7.13 g/m*3 20.1 C 0 km/h
309 26-03-2003 13:52:16 20.4 C 7.08 g/m*3 20.4 C 0 km/h
310 26-03-2003 14:04:15 19.9 C 7.04 g/m*3 19.9 C 0 km/h
311 26-03-2003 14:16:15 20 C 7.09 g/m*3 20 C 0 km/h
312 26-03-2003 14:28:15 19.8 C 7 g/m*3 19.8 C 0 km/h
313 26-03-2003 14:40:16 19.6 C 6.58 g/m*3 19.6 C 0 km/h
314 26-03-2003 14:52:16 19.6 C 6.92 g/m*3 19.6 C 0 km/h
315 26-03-2003 15:04:14 19.3 C 6.8 g/m*3 19.3 C 0 km/h
316 26-03-2003 15:16:14 18.6 C 6.53 g/m*3 18.6 C 0 km/h
317 26-03-2003 15:28:14 18.6 C 7 g/m*3 18.6 C 0 km/h
318 26-03-2003 15:40:14 18 C 6.91 g/m*3 18 C 0 km/h
319 26-03-2003 15:52:14 17.8 C 6.98 g/m*3 17.8 C 0 km/h
320 26-03-2003 16:04:15 17.6 C 7.05 g/m*3 17.6 C 0 km/h
321 26-03-2003 16:16:15 17 C 7.38 g/m*3 17 C 0 km/h
322 26-03-2003 16:28:15 16.3 C 7.49 g/m*3 16.3 C 0 km/h
323 26-03-2003 16:40:15 16.3 C 7.63 g/m*3 16.3 C 0 km/h
324 26-03-2003 16:52:15 16 C 8.04 g/m*3 16 C 0 km/h
325 26-03-2003 17:04:15 15.7 C 8.16 g/m*3 15.7 C 0 km/h
Sensor: Nr:Datum:Temp:Abs-Feuchte:Windchill:Wind:
Aussen-T/F 326 26-03-2003 17:16:15 15.5 C 8.46 g/m*3 15.5 C 0 km/h
327 26-03-2003 17:28:15 15.3 C 7.97 g/m*3 15.3 C 0 km/h
328 26-03-2003 17:40:15 14.5 C 7.46 g/m*3 14.5 C 0 km/h
329 26-03-2003 17:52:15 14.6 C 7.63 g/m*3 14.6 C 0 km/h
330 26-03-2003 18:04:15 13.7 C 7.7 g/m*3 13.7 C 0 km/h
331 26-03-2003 18:16:15 13.5 C 7.49 g/m*3 13.5 C 0 km/h
332 26-03-2003 18:28:15 13.3 C 7.63 g/m*3 13.3 C 0 km/h
333 26-03-2003 18:40:13 13.1 C 7.3 g/m*3 13.1 C 0 km/h
334 26-03-2003 18:52:05 12.8 C 7.17 g/m*3 12.8 C 0 km/h
335 26-03-2003 19:04:05 12.7 C 7.01 g/m*3 12.7 C 0 km/h
336 26-03-2003 19:16:15 12.4 C 7.32 g/m*3 12.4 C 0 km/h
337 26-03-2003 19:28:15 12.2 C 7.23 g/m*3 12.2 C 0 km/h
338 26-03-2003 19:40:14 12.2 C 7.23 g/m*3 12.2 C 0 km/h
339 26-03-2003 19:52:14 12.3 C 7.28 g/m*3 12.3 C 0 km/h
340 26-03-2003 20:04:14 12.4 C 7.43 g/m*3 12.4 C 0 km/h
341 26-03-2003 20:16:14 12.2 C 7.34 g/m*3 12.2 C 0 km/h
342 26-03-2003 20:28:14 12.2 C 7.34 g/m*3 12.2 C 0 km/h
343 26-03-2003 20:40:13 12.2 C 7.45 g/m*3 12.2 C 0 km/h
344 26-03-2003 20:52:13 12.1 C 7.29 g/m*3 12.1 C 0 km/h
345 26-03-2003 21:04:14 12 C 7.35 g/m*3 12 C 0 km/h
346 26-03-2003 21:16:14 12.1 C 7.4 g/m*3 12.1 C 0 km/h
347 26-03-2003 21:28:14 12 C 7.46 g/m*3 12 C 0 km/h
348 26-03-2003 21:40:14 12 C 7.46 g/m*3 12 C 0 km/h
349 26-03-2003 21:52:14 11.9 C 7.41 g/m*3 11.9 C 0 km/h
350 26-03-2003 22:04:14 11.8 C 7.47 g/m*3 11.8 C 0 km/h
Sensor: Nr:Datum:Temp:Abs-Feuchte:Windchill:Wind:
Aussen-T/F 351 26-03-2003 22:16:14 11.5 C 7.33 g/m*3 11.5 C 0 km/h
352 26-03-2003 22:28:14 11.4 C 7.39 g/m*3 11.4 C 0 km/h
353 26-03-2003 22:40:00 11.1 C 7.25 g/m*3 11.1 C 0 km/h
354 26-03-2003 22:52:00 11.1 C 7.35 g/m*3 11.1 C 0 km/h
355 26-03-2003 23:04:14 11 C 7.31 g/m*3 11 C 0 km/h
356 26-03-2003 23:16:14 10.8 C 7.31 g/m*3 10.8 C 0 km/h
357 26-03-2003 23:28:14 10.5 C 7.27 g/m*3 10.5 C 0 km/h
358 26-03-2003 23:40:14 10.3 C 7.28 g/m*3 10.3 C 0 km/h
359 26-03-2003 23:52:14 10.2 C 7.23 g/m*3 10.2 C 0 km/h
360 27-03-2003 00:05:17 10 C 7.24 g/m*3 10 C 0 km/h
361 27-03-2003 00:17:17 9.7 C 7.28 g/m*3 9.7 C 0 km/h
362 27-03-2003 00:29:17 9.4 C 7.15 g/m*3 9.4 C 0 km/h
363 27-03-2003 00:41:17 9.1 C 7.1 g/m*3 9.1 C 0 km/h
364 27-03-2003 00:53:17 9 C 7.23 g/m*3 9 C 0 km/h
365 27-03-2003 01:05:17 8.9 C 7.27 g/m*3 8.9 C 0 km/h
366 27-03-2003 01:17:17 8.4 C 7.04 g/m*3 8.4 C 0 km/h
367 27-03-2003 01:29:17 8.2 C 7.03 g/m*3 8.2 C 0 km/h
368 27-03-2003 01:41:17 7.9 C 6.98 g/m*3 7.9 C 0 km/h
369 27-03-2003 01:53:17 7.7 C 7.05 g/m*3 7.7 C 0 km/h
370 27-03-2003 02:05:17 7.6 C 7.01 g/m*3 7.6 C 0 km/h
371 27-03-2003 02:17:17 7.5 C 7.04 g/m*3 7.5 C 0 km/h
372 27-03-2003 02:29:17 7.3 C 6.95 g/m*3 7.3 C 0 km/h
373 27-03-2003 02:41:17 7.3 C 7.03 g/m*3 7.3 C 0 km/h
374 27-03-2003 02:53:17 6.9 C 6.85 g/m*3 6.9 C 0 km/h
375 27-03-2003 03:05:17 6.7 C 6.76 g/m*3 6.7 C 0 km/h
Sensor: Nr:Datum:Temp:Abs-Feuchte:Windchill:Wind:
Aussen-T/F 376 27-03-2003 03:17:17 6.5 C 6.67 g/m*3 6.5 C 0 km/h
377 27-03-2003 03:29:17 6.5 C 6.9 g/m*3 6.5 C 0 km/h
378 27-03-2003 03:41:17 6.4 C 6.93 g/m*3 6.4 C 0 km/h
379 27-03-2003 03:53:17 6.5 C 7.05 g/m*3 6.5 C 0 km/h
380 27-03-2003 04:05:17 6.6 C 7.1 g/m*3 6.6 C 0 km/h
381 27-03-2003 04:17:17 6.4 C 7.08 g/m*3 6.4 C 0 km/h
382 27-03-2003 04:29:17 6.5 C 7.05 g/m*3 6.5 C 0 km/h
383 27-03-2003 04:41:17 6.8 C 7.19 g/m*3 6.8 C 0 km/h
384 27-03-2003 04:53:17 6.7 C 7.14 g/m*3 6.7 C 0 km/h
385 27-03-2003 05:05:17 6.7 C 7.07 g/m*3 6.7 C 0 km/h
386 27-03-2003 05:17:17 6.5 C 6.97 g/m*3 6.5 C 0 km/h
387 27-03-2003 05:29:17 6.5 C 6.97 g/m*3 6.5 C 0 km/h
388 27-03-2003 05:41:17 6.6 C 7.1 g/m*3 6.6 C 0 km/h
389 27-03-2003 05:53:17 6.7 C 7.14 g/m*3 6.7 C 0 km/h
390 27-03-2003 06:05:17 6.5 C 7.05 g/m*3 6.5 C 0 km/h
391 27-03-2003 06:17:17 6.5 C 6.97 g/m*3 6.5 C 0 km/h
392 27-03-2003 06:29:17 6.2 C 6.84 g/m*3 6.2 C 0 km/h
393 27-03-2003 06:41:17 6.1 C 6.72 g/m*3 6.1 C 0 km/h
394 27-03-2003 06:53:17 5.7 C 6.62 g/m*3 5.7 C 0 km/h
395 27-03-2003 07:05:17 5.6 C 6.65 g/m*3 5.6 C 0 km/h
396 27-03-2003 07:17:17 5.5 C 6.6 g/m*3 5.5 C 0 km/h
397 27-03-2003 07:29:17 5.5 C 6.67 g/m*3 5.5 C 0 km/h
398 27-03-2003 07:41:17 5.7 C 6.76 g/m*3 5.7 C 0 km/h
399 27-03-2003 07:53:17 5.7 C 6.76 g/m*3 5.7 C 0 km/h
400 27-03-2003 08:05:16 5.9 C 6.85 g/m*3 5.9 C 0 km/h
Sensor: Nr:Datum:Temp:Abs-Feuchte:Windchill:Wind:
Aussen-T/F 401 27-03-2003 08:17:16 6.1 C 6.87 g/m*3 6.1 C 0 km/h
402 27-03-2003 08:29:16 6.3 C 6.88 g/m*3 6.3 C 0 km/h
403 27-03-2003 08:41:16 6.3 C 6.81 g/m*3 6.3 C 0 km/h
404 27-03-2003 08:53:16 6.5 C 6.82 g/m*3 6.5 C 0 km/h
405 27-03-2003 09:05:16 6.9 C 6.93 g/m*3 6.9 C 0 km/h
406 27-03-2003 09:17:16 7.5 C 7.04 g/m*3 7.5 C 0 km/h
407 27-03-2003 09:29:16 8.2 C 7.03 g/m*3 8.2 C 0 km/h
408 27-03-2003 09:41:15 8.5 C 7.17 g/m*3 8.5 C 0 km/h
409 27-03-2003 09:53:15 9.5 C 7.28 g/m*3 9.5 C 0 km/h
410 27-03-2003 10:05:15 10.4 C 7.13 g/m*3 10.4 C 0 km/h
411 27-03-2003 10:17:15 10.9 C 7.26 g/m*3 10.9 C 0 km/h
412 27-03-2003 10:29:15 11.2 C 7.4 g/m*3 11.2 C 0 km/h
413 27-03-2003 10:41:15 11.6 C 7.59 g/m*3 11.6 C 0 km/h
414 27-03-2003 10:53:15 12.1 C 7.72 g/m*3 12.1 C 0 km/h
415 27-03-2003 11:05:15 13.2 C 7.69 g/m*3 13.2 C 0 km/h
416 27-03-2003 11:17:15 14 C 7.72 g/m*3 14 C 0 km/h
417 27-03-2003 11:29:15 14.5 C 7.71 g/m*3 14.5 C 0 km/h
418 27-03-2003 11:41:15 15.4 C 7.88 g/m*3 15.4 C 0 km/h
419 27-03-2003 11:53:15 16.1 C 7.68 g/m*3 16.1 C 0 km/h
420 27-03-2003 12:05:16 16.8 C 7.86 g/m*3 16.8 C 0 km/h
421 27-03-2003 12:17:16 17.9 C 7.63 g/m*3 17.9 C 0 km/h
422 27-03-2003 12:29:16 18.3 C 7.35 g/m*3 18.3 C 0 km/h
423 27-03-2003 12:41:16 19.5 C 7.55 g/m*3 19.5 C 0 km/h
424 27-03-2003 12:53:16 19.7 C 6.96 g/m*3 19.7 C 0 km/h
425 27-03-2003 13:05:16 20.1 C 7.13 g/m*3 20.1 C 0 km/h
Sensor: Nr:Datum:Temp:Abs-Feuchte:Windchill:Wind:
Aussen-T/F 426 27-03-2003 13:17:16 20 C 6.74 g/m*3 20 C 0 km/h
427 27-03-2003 13:29:16 20.4 C 6.37 g/m*3 20.4 C 0 km/h
428 27-03-2003 13:41:15 21.2 C 6.49 g/m*3 21.2 C 0 km/h
429 27-03-2003 13:53:15 21.5 C 6.22 g/m*3 21.5 C 0 km/h
430 27-03-2003 14:05:16 21.6 C 6.07 g/m*3 21.6 C 0 km/h
431 27-03-2003 14:17:16 22.4 C 5.96 g/m*3 22.4 C 0 km/h
432 27-03-2003 14:29:16 23.1 C 5.58 g/m*3 23.1 C 0 km/h
433 27-03-2003 14:41:15 23.9 C 5.41 g/m*3 23.9 C 0 km/h
434 27-03-2003 14:53:15 23.2 C 5.41 g/m*3 23.2 C 0 km/h
435 27-03-2003 15:05:15 22.4 C 5.56 g/m*3 22.4 C 0 km/h
436 27-03-2003 15:17:15 21.6 C 5.12 g/m*3 21.6 C 0 km/h
437 27-03-2003 15:29:15 20.6 C 5.37 g/m*3 20.6 C 0 km/h
438 27-03-2003 15:41:15 20.4 C 5.66 g/m*3 20.4 C 0 km/h
439 27-03-2003 15:53:15 20.7 C 6.12 g/m*3 20.7 C 0 km/h
440 27-03-2003 16:05:15 20.9 C 5.83 g/m*3 20.9 C 0 km/h
441 27-03-2003 16:17:15 20.3 C 5.98 g/m*3 20.3 C 0 km/h
442 27-03-2003 16:29:15 19.5 C 5.87 g/m*3 19.5 C 0 km/h
443 27-03-2003 16:41:16 19.8 C 5.98 g/m*3 19.8 C 0 km/h
444 27-03-2003 16:53:16 19.8 C 6.49 g/m*3 19.8 C 0 km/h
445 27-03-2003 17:05:15 20.1 C 6.43 g/m*3 20.1 C 0 km/h
446 27-03-2003 17:17:15 20.8 C 6.34 g/m*3 20.8 C 0 km/h
447 27-03-2003 17:29:15 21.6 C 6.26 g/m*3 21.6 C 0 km/h
448 27-03-2003 17:41:15 21.2 C 5.74 g/m*3 21.2 C 0 km/h
449 27-03-2003 17:53:15 20.7 C 6.12 g/m*3 20.7 C 0 km/h
450 27-03-2003 18:05:14 20.2 C 6.29 g/m*3 20.2 C 0 km/h
Sensor: Nr:Datum:Temp:Abs-Feuchte:Windchill:Wind:
Aussen-T/F 451 27-03-2003 18:17:14 19.4 C 6.51 g/m*3 19.4 C 0 km/h
452 27-03-2003 18:29:14 18.1 C 6.33 g/m*3 18.1 C 0 km/h
453 27-03-2003 18:41:15 17 C 6.22 g/m*3 17 C 0 km/h
454 27-03-2003 18:53:15 16.3 C 6.1 g/m*3 16.3 C 0 km/h
455 27-03-2003 19:05:16 15.7 C 6.02 g/m*3 15.7 C 0 km/h
456 27-03-2003 19:17:16 15.2 C 6.1 g/m*3 15.2 C 0 km/h
457 27-03-2003 19:29:16 14.5 C 6.22 g/m*3 14.5 C 0 km/h
458 27-03-2003 19:41:16 14.2 C 6.23 g/m*3 14.2 C 0 km/h
459 27-03-2003 19:53:16 13.9 C 6.23 g/m*3 13.9 C 0 km/h
460 27-03-2003 20:05:16 13.6 C 6.36 g/m*3 13.6 C 0 km/h
461 27-03-2003 20:17:16 13.2 C 6.32 g/m*3 13.2 C 0 km/h
462 27-03-2003 20:29:16 12.9 C 6.31 g/m*3 12.9 C 0 km/h
463 27-03-2003 20:41:16 12.5 C 6.27 g/m*3 12.5 C 0 km/h
464 27-03-2003 20:53:16 12.4 C 6.23 g/m*3 12.4 C 0 km/h
465 27-03-2003 21:06:16 12.1 C 6.22 g/m*3 12.1 C 0 km/h
466 27-03-2003 21:30:16 11.5 C 6.4 g/m*3 11.5 C 0 km/h
467 27-03-2003 21:42:16 11.4 C 6.47 g/m*3 11.4 C 0 km/h
468 27-03-2003 21:54:16 11.2 C 6.28 g/m*3 11.2 C 0 km/h
469 27-03-2003 22:06:16 10.8 C 6.33 g/m*3 10.8 C 0 km/h
470 27-03-2003 22:18:16 10.5 C 6.3 g/m*3 10.5 C 0 km/h
471 27-03-2003 22:30:16 10.4 C 6.36 g/m*3 10.4 C 0 km/h
472 27-03-2003 22:42:16 10.1 C 6.34 g/m*3 10.1 C 0 km/h
473 27-03-2003 22:54:16 9.7 C 6.36 g/m*3 9.7 C 0 km/h
474 27-03-2003 23:06:16 9.3 C 6.29 g/m*3 9.3 C 0 km/h
475 27-03-2003 23:18:16 9.1 C 6.3 g/m*3 9.1 C 0 km/h
Sensor: Nr:Datum:Temp:Abs-Feuchte:Windchill:Wind:
Aussen-T/F 476 27-03-2003 23:30:16 9.3 C 6.47 g/m*3 9.3 C 0 km/h
477 27-03-2003 23:42:16 9.1 C 6.48 g/m*3 9.1 C 0 km/h
478 27-03-2003 23:54:16 8.9 C 6.48 g/m*3 8.9 C 0 km/h
479 28-03-2003 00:06:16 8.5 C 6.32 g/m*3 8.5 C 0 km/h
480 28-03-2003 00:18:16 8.4 C 6.45 g/m*3 8.4 C 0 km/h
481 28-03-2003 00:30:16 8.1 C 6.24 g/m*3 8.1 C 0 km/h
482 28-03-2003 00:42:16 7.9 C 6.32 g/m*3 7.9 C 0 km/h
483 28-03-2003 00:54:16 7.7 C 6.32 g/m*3 7.7 C 0 km/h
484 28-03-2003 01:06:16 7.8 C 6.53 g/m*3 7.8 C 0 km/h
485 28-03-2003 01:18:16 7.3 C 6.32 g/m*3 7.3 C 0 km/h
486 28-03-2003 01:30:16 7.2 C 6.28 g/m*3 7.2 C 0 km/h
487 28-03-2003 01:42:16 7.1 C 6.32 g/m*3 7.1 C 0 km/h
488 28-03-2003 01:54:16 6.9 C 6.31 g/m*3 6.9 C 0 km/h
489 28-03-2003 02:06:16 6.8 C 6.35 g/m*3 6.8 C 0 km/h
490 28-03-2003 02:18:16 6.9 C 6.47 g/m*3 6.9 C 0 km/h
491 28-03-2003 02:30:16 6.7 C 6.38 g/m*3 6.7 C 0 km/h
492 28-03-2003 02:42:16 6.4 C 6.18 g/m*3 6.4 C 0 km/h
493 28-03-2003 02:54:16 6.4 C 6.33 g/m*3 6.4 C 0 km/h
494 28-03-2003 03:06:16 6.4 C 6.33 g/m*3 6.4 C 0 km/h
495 28-03-2003 03:18:16 6.2 C 6.32 g/m*3 6.2 C 0 km/h
496 28-03-2003 03:30:16 6 C 6.24 g/m*3 6 C 0 km/h
497 28-03-2003 03:42:16 5.8 C 6.3 g/m*3 5.8 C 0 km/h
498 28-03-2003 03:54:16 5.6 C 6.22 g/m*3 5.6 C 0 km/h
499 28-03-2003 04:06:16 5.3 C 6.03 g/m*3 5.3 C 0 km/h
500 28-03-2003 04:18:16 5.3 C 6.1 g/m*3 5.3 C 0 km/h
Sensor: Nr:Datum:Temp:Abs-Feuchte:Windchill:Wind:
Aussen-T/F 501 28-03-2003 04:30:16 5.1 C 6.02 g/m*3 5.1 C 0 km/h
502 28-03-2003 04:42:16 5.2 C 6.13 g/m*3 5.2 C 0 km/h
503 28-03-2003 04:54:16 5 C 6.05 g/m*3 5 C 0 km/h
504 28-03-2003 05:06:16 4.9 C 6.08 g/m*3 4.9 C 0 km/h
505 28-03-2003 05:18:16 4.7 C 6 g/m*3 4.7 C 0 km/h
506 28-03-2003 05:30:16 4.7 C 6 g/m*3 4.7 C 0 km/h
507 28-03-2003 05:42:16 4.4 C 5.88 g/m*3 4.4 C 0 km/h
508 28-03-2003 05:54:16 4.4 C 5.88 g/m*3 4.4 C 0 km/h
509 28-03-2003 06:06:16 4.2 C 5.8 g/m*3 4.2 C 0 km/h
510 28-03-2003 06:18:16 4.2 C 5.86 g/m*3 4.2 C 0 km/h
511 28-03-2003 06:30:16 4.2 C 5.86 g/m*3 4.2 C 0 km/h
512 28-03-2003 06:42:16 4.4 C 5.94 g/m*3 4.4 C 0 km/h
513 28-03-2003 06:54:16 4.4 C 5.94 g/m*3 4.4 C 0 km/h
514 28-03-2003 07:06:16 4.6 C 6.09 g/m*3 4.6 C 0 km/h
515 28-03-2003 07:18:16 4.8 C 6.1 g/m*3 4.8 C 0 km/h
516 28-03-2003 07:30:16 5 C 6.12 g/m*3 5 C 0 km/h
517 28-03-2003 07:42:16 5 C 6.12 g/m*3 5 C 0 km/h
518 28-03-2003 07:54:16 4.8 C 6.1 g/m*3 4.8 C 0 km/h
519 28-03-2003 08:06:17 5 C 6.12 g/m*3 5 C 0 km/h
520 28-03-2003 08:18:17 5.2 C 6.27 g/m*3 5.2 C 0 km/h
521 28-03-2003 08:30:17 5.3 C 6.31 g/m*3 5.3 C 0 km/h
522 28-03-2003 08:42:16 5.4 C 6.42 g/m*3 5.4 C 0 km/h
523 28-03-2003 08:54:16 5.8 C 6.59 g/m*3 5.8 C 0 km/h
524 28-03-2003 09:06:16 6.6 C 6.79 g/m*3 6.6 C 0 km/h
525 28-03-2003 09:18:16 7.3 C 6.87 g/m*3 7.3 C 0 km/h
Sensor: Nr:Datum:Temp:Abs-Feuchte:Windchill:Wind:
Aussen-T/F 526 28-03-2003 09:30:16 8.3 C 7 g/m*3 8.3 C 0 km/h
527 28-03-2003 09:42:16 9 C 6.79 g/m*3 9 C 0 km/h
528 28-03-2003 09:54:16 9.5 C 6.74 g/m*3 9.5 C 0 km/h
529 28-03-2003 10:06:17 10.4 C 6.94 g/m*3 10.4 C 0 km/h
530 28-03-2003 10:18:17 11.4 C 6.98 g/m*3 11.4 C 0 km/h
531 28-03-2003 10:30:17 12.4 C 6.99 g/m*3 12.4 C 0 km/h
532 28-03-2003 10:42:16 13.2 C 7.12 g/m*3 13.2 C 0 km/h
533 28-03-2003 10:54:16 14.4 C 7.05 g/m*3 14.4 C 0 km/h
534 28-03-2003 11:06:16 15.4 C 6.96 g/m*3 15.4 C 0 km/h
535 28-03-2003 11:18:16 16.3 C 6.94 g/m*3 16.3 C 0 km/h
536 28-03-2003 11:30:16 17.3 C 6.78 g/m*3 17.3 C 0 km/h
537 28-03-2003 11:42:17 17.4 C 6.52 g/m*3 17.4 C 0 km/h
538 28-03-2003 11:54:17 18.4 C 6.45 g/m*3 18.4 C 0 km/h
539 28-03-2003 12:06:17 19.8 C 6.83 g/m*3 19.8 C 0 km/h
540 28-03-2003 12:18:17 20.4 C 6.55 g/m*3 20.4 C 0 km/h
541 28-03-2003 12:30:17 21.2 C 6.3 g/m*3 21.2 C 0 km/h
542 28-03-2003 12:42:16 21.5 C 6.22 g/m*3 21.5 C 0 km/h
543 28-03-2003 12:54:16 21.6 C 6.64 g/m*3 21.6 C 0 km/h
544 28-03-2003 13:06:16 21.4 C 6.37 g/m*3 21.4 C 0 km/h
545 28-03-2003 13:18:16 21.7 C 6.49 g/m*3 21.7 C 0 km/h
546 28-03-2003 13:30:16 21.5 C 6.41 g/m*3 21.5 C 0 km/h
547 28-03-2003 13:42:15 22 C 6.6 g/m*3 22 C 0 km/h
548 28-03-2003 13:54:15 22.5 C 6.39 g/m*3 22.5 C 0 km/h
549 28-03-2003 14:06:16 23 C 5.96 g/m*3 23 C 0 km/h
550 28-03-2003 14:18:16 23.3 C 5.23 g/m*3 23.3 C 0 km/h
Sensor: Nr:Datum:Temp:Abs-Feuchte:Windchill:Wind:
Aussen-T/F 551 28-03-2003 14:30:16 23.8 C 5.16 g/m*3 23.8 C 0 km/h
552 28-03-2003 14:42:16 24 C 4.79 g/m*3 24 C 0 km/h
553 28-03-2003 14:54:16 24.1 C 4.59 g/m*3 24.1 C 0 km/h
554 28-03-2003 15:06:16 24.4 C 4.45 g/m*3 24.4 C 0 km/h
555 28-03-2003 15:18:16 24.7 C 4.53 g/m*3 24.7 C 0 km/h
556 28-03-2003 15:30:16 24.3 C 4.65 g/m*3 24.3 C 0 km/h
557 28-03-2003 15:42:17 24.6 C 4.5 g/m*3 24.6 C 0 km/h
558 28-03-2003 15:54:17 24.8 C 4.55 g/m*3 24.8 C 0 km/h
559 28-03-2003 16:06:16 24.5 C 4.48 g/m*3 24.5 C 0 km/h
560 28-03-2003 16:18:16 24 C 4.35 g/m*3 24 C 0 km/h
561 28-03-2003 16:30:16 24.1 C 4.38 g/m*3 24.1 C 0 km/h
562 28-03-2003 16:42:15 24 C 4.57 g/m*3 24 C 0 km/h
563 28-03-2003 16:54:15 23.3 C 4.6 g/m*3 23.3 C 0 km/h
564 28-03-2003 17:06:16 22.4 C 4.96 g/m*3 22.4 C 0 km/h
565 28-03-2003 17:18:16 22.5 C 4.99 g/m*3 22.5 C 0 km/h
566 28-03-2003 17:30:16 22.4 C 5.16 g/m*3 22.4 C 0 km/h
567 28-03-2003 17:42:16 21.9 C 5.4 g/m*3 21.9 C 0 km/h
568 28-03-2003 17:54:16 21.2 C 5.56 g/m*3 21.2 C 0 km/h
569 28-03-2003 18:06:56 19.8 C 6.15 g/m*3 19.8 C 0 km/h
570 28-03-2003 18:18:09 19.1 C 6.23 g/m*3 19.1 C 0 km/h
571 28-03-2003 18:30:16 18.5 C 6.17 g/m*3 18.5 C 0 km/h
572 28-03-2003 18:42:17 18.3 C 6.25 g/m*3 18.3 C 0 km/h
573 28-03-2003 18:54:17 17.9 C 6.41 g/m*3 17.9 C 0 km/h
574 28-03-2003 19:06:38 17.7 C 6.34 g/m*3 17.7 C 0 km/h
575 28-03-2003 19:18:33 17.6 C 6.3 g/m*3 17.6 C 0 km/h
Sensor: Nr:Datum:Temp:Abs-Feuchte:Windchill:Wind:
Aussen-T/F 576 28-03-2003 19:30:01 17.5 C 6.11 g/m*3 17.5 C 0 km/h
577 28-03-2003 19:42:17 17.4 C 6.37 g/m*3 17.4 C 0 km/h
578 28-03-2003 19:54:17 17.5 C 6.26 g/m*3 17.5 C 0 km/h
579 28-03-2003 20:06:16 17.4 C 6.22 g/m*3 17.4 C 0 km/h
580 28-03-2003 20:18:16 17.3 C 6.19 g/m*3 17.3 C 0 km/h
581 28-03-2003 20:30:16 17.2 C 6.3 g/m*3 17.2 C 0 km/h
582 28-03-2003 20:42:17 16.9 C 6.18 g/m*3 16.9 C 0 km/h
583 28-03-2003 20:54:17 17 C 6.08 g/m*3 17 C 0 km/h
584 28-03-2003 21:06:16 16.9 C 6.18 g/m*3 16.9 C 0 km/h
585 28-03-2003 21:18:16 16.6 C 6.22 g/m*3 16.6 C 0 km/h
586 28-03-2003 21:30:16 16.5 C 6.32 g/m*3 16.5 C 0 km/h
587 28-03-2003 21:43:16 16.1 C 6.44 g/m*3 16.1 C 0 km/h
588 28-03-2003 21:55:16 15.8 C 6.6 g/m*3 15.8 C 0 km/h
589 28-03-2003 22:07:16 15.8 C 6.6 g/m*3 15.8 C 0 km/h
590 28-03-2003 22:19:16 15.5 C 6.61 g/m*3 15.5 C 0 km/h
591 28-03-2003 22:31:16 15.5 C 6.48 g/m*3 15.5 C 0 km/h
592 28-03-2003 22:43:16 15.3 C 6.92 g/m*3 15.3 C 0 km/h
593 28-03-2003 22:55:16 14.7 C 7.55 g/m*3 14.7 C 0 km/h
594 28-03-2003 23:07:16 14.8 C 7.22 g/m*3 14.8 C 0 km/h
595 28-03-2003 23:19:16 14.8 C 7.22 g/m*3 14.8 C 0 km/h
596 28-03-2003 23:31:16 15 C 6.54 g/m*3 15 C 0 km/h
597 28-03-2003 23:43:16 15.5 C 6.34 g/m*3 15.5 C 0 km/h
598 28-03-2003 23:55:16 15.3 C 6.53 g/m*3 15.3 C 0 km/h
599 29-03-2003 00:07:16 15.1 C 6.58 g/m*3 15.1 C 0 km/h
600 29-03-2003 00:19:16 14.9 C 6.75 g/m*3 14.9 C 0 km/h
Sensor: Nr:Datum:Temp:Abs-Feuchte:Windchill:Wind:
Aussen-T/F 601 29-03-2003 00:31:16 14.6 C 6.88 g/m*3 14.6 C 0 km/h
602 29-03-2003 00:43:16 14.3 C 6.76 g/m*3 14.3 C 0 km/h
603 29-03-2003 00:55:16 14.2 C 6.72 g/m*3 14.2 C 0 km/h
604 29-03-2003 01:07:16 14.1 C 6.8 g/m*3 14.1 C 0 km/h
605 29-03-2003 01:19:16 14 C 7 g/m*3 14 C 0 km/h
606 29-03-2003 01:31:16 14 C 6.75 g/m*3 14 C 0 km/h
607 29-03-2003 01:43:16 13.8 C 7.03 g/m*3 13.8 C 0 km/h
608 29-03-2003 01:55:16 13.8 C 7.15 g/m*3 13.8 C 0 km/h
609 29-03-2003 02:07:16 13.5 C 7.02 g/m*3 13.5 C 0 km/h
610 29-03-2003 02:19:16 13.4 C 6.97 g/m*3 13.4 C 0 km/h
611 29-03-2003 02:31:16 13.4 C 6.97 g/m*3 13.4 C 0 km/h
612 29-03-2003 02:43:16 13.3 C 7.05 g/m*3 13.3 C 0 km/h
613 29-03-2003 02:55:16 13.1 C 7.07 g/m*3 13.1 C 0 km/h
614 29-03-2003 03:07:16 13 C 7.03 g/m*3 13 C 0 km/h
615 29-03-2003 03:19:16 12.8 C 7.06 g/m*3 12.8 C 0 km/h
616 29-03-2003 03:31:16 12.9 C 7.1 g/m*3 12.9 C 0 km/h
617 29-03-2003 03:43:16 12.8 C 7.17 g/m*3 12.8 C 0 km/h
618 29-03-2003 03:55:16 12.7 C 7.12 g/m*3 12.7 C 0 km/h
619 29-03-2003 04:07:16 12.7 C 7.12 g/m*3 12.7 C 0 km/h
620 29-03-2003 04:19:16 12.4 C 7.1 g/m*3 12.4 C 0 km/h
621 29-03-2003 04:31:16 12.2 C 7.01 g/m*3 12.2 C 0 km/h
622 29-03-2003 04:43:16 12.1 C 7.08 g/m*3 12.1 C 0 km/h
623 29-03-2003 04:55:16 12.1 C 7.08 g/m*3 12.1 C 0 km/h
624 29-03-2003 05:07:16 12.1 C 7.18 g/m*3 12.1 C 0 km/h
625 29-03-2003 05:19:16 11.9 C 7.2 g/m*3 11.9 C 0 km/h
Sensor: Nr:Datum:Temp:Abs-Feuchte:Windchill:Wind:
Aussen-T/F 626 29-03-2003 05:31:16 11.8 C 7.16 g/m*3 11.8 C 0 km/h
627 29-03-2003 05:43:16 11.7 C 7.11 g/m*3 11.7 C 0 km/h
628 29-03-2003 05:55:16 11.8 C 7.16 g/m*3 11.8 C 0 km/h
629 29-03-2003 06:07:16 11.8 C 7.26 g/m*3 11.8 C 0 km/h
630 29-03-2003 06:19:16 11.8 C 7.16 g/m*3 11.8 C 0 km/h
631 29-03-2003 06:31:16 11.7 C 7.22 g/m*3 11.7 C 0 km/h
632 29-03-2003 06:43:16 11.7 C 7.32 g/m*3 11.7 C 0 km/h
633 29-03-2003 06:55:16 11.7 C 7.53 g/m*3 11.7 C 0 km/h
634 29-03-2003 07:07:16 11.8 C 7.47 g/m*3 11.8 C 0 km/h
635 29-03-2003 07:19:16 12 C 7.46 g/m*3 12 C 0 km/h
636 29-03-2003 07:31:16 12.1 C 7.4 g/m*3 12.1 C 0 km/h
637 29-03-2003 07:43:16 12.2 C 7.45 g/m*3 12.2 C 0 km/h
638 29-03-2003 07:55:16 12 C 7.46 g/m*3 12 C 0 km/h
639 29-03-2003 08:07:16 12.2 C 7.45 g/m*3 12.2 C 0 km/h
640 29-03-2003 08:19:16 12.7 C 7.46 g/m*3 12.7 C 0 km/h
641 29-03-2003 08:31:16 12.7 C 7.57 g/m*3 12.7 C 0 km/h
642 29-03-2003 08:43:16 12.9 C 7.66 g/m*3 12.9 C 0 km/h
643 29-03-2003 08:55:16 13.4 C 7.67 g/m*3 13.4 C 0 km/h
644 29-03-2003 09:07:16 13.5 C 7.6 g/m*3 13.5 C 0 km/h
645 29-03-2003 09:19:16 14.5 C 7.59 g/m*3 14.5 C 0 km/h
646 29-03-2003 09:31:16 15.4 C 7.23 g/m*3 15.4 C 0 km/h
647 29-03-2003 09:43:38 15.9 C 7.18 g/m*3 15.9 C 0 km/h
648 29-03-2003 09:55:38 16.8 C 7.29 g/m*3 16.8 C 0 km/h
649 29-03-2003 10:07:09 17.2 C 7.32 g/m*3 17.2 C 0 km/h
650 29-03-2003 10:19:03 17.4 C 7.26 g/m*3 17.4 C 0 km/h
Sensor: Nr:Datum:Temp:Abs-Feuchte:Windchill:Wind:
Aussen-T/F 651 29-03-2003 10:31:15 17.1 C 7.13 g/m*3 17.1 C 0 km/h
652 29-03-2003 10:43:16 17 C 6.95 g/m*3 17 C 0 km/h
653 29-03-2003 10:55:16 17.3 C 6.92 g/m*3 17.3 C 0 km/h
654 29-03-2003 11:07:16 17.8 C 6.98 g/m*3 17.8 C 0 km/h
655 29-03-2003 11:19:16 18.5 C 6.96 g/m*3 18.5 C 0 km/h
656 29-03-2003 11:31:16 19.3 C 6.97 g/m*3 19.3 C 0 km/h
657 29-03-2003 11:43:16 19.8 C 6.83 g/m*3 19.8 C 0 km/h
658 29-03-2003 11:55:16 20.1 C 7.13 g/m*3 20.1 C 0 km/h
659 29-03-2003 12:07:29 20.2 C 7.17 g/m*3 20.2 C 0 km/h
660 29-03-2003 12:19:29 21 C 6.96 g/m*3 21 C 0 km/h
661 29-03-2003 12:31:17 22.1 C 7.03 g/m*3 22.1 C 0 km/h
662 29-03-2003 12:43:17 22.1 C 7.03 g/m*3 22.1 C 0 km/h
663 29-03-2003 12:55:17 22.3 C 7.11 g/m*3 22.3 C 0 km/h
664 29-03-2003 13:07:17 21.2 C 6.67 g/m*3 21.2 C 0 km/h
665 29-03-2003 13:19:17 21.5 C 7.17 g/m*3 21.5 C 0 km/h
666 29-03-2003 13:31:17 22.5 C 7.19 g/m*3 22.5 C 0 km/h
667 29-03-2003 13:43:15 23.6 C 7.44 g/m*3 23.6 C 0 km/h
668 29-03-2003 13:55:15 24 C 7.18 g/m*3 24 C 0 km/h
669 29-03-2003 14:07:34 23.4 C 6.73 g/m*3 23.4 C 0 km/h
670 29-03-2003 14:19:34 24.6 C 6.98 g/m*3 24.6 C 0 km/h
671 29-03-2003 14:31:15 23.9 C 6.71 g/m*3 23.9 C 0 km/h
672 29-03-2003 14:43:16 23.1 C 6.61 g/m*3 23.1 C 0 km/h
673 29-03-2003 14:55:16 21.7 C 6.68 g/m*3 21.7 C 0 km/h
674 29-03-2003 15:07:15 21.4 C 6.94 g/m*3 21.4 C 0 km/h
675 29-03-2003 15:19:15 21.7 C 6.87 g/m*3 21.7 C 0 km/h
Sensor: Nr:Datum:Temp:Abs-Feuchte:Windchill:Wind:
Aussen-T/F 676 29-03-2003 15:31:15 21.4 C 6.94 g/m*3 21.4 C 0 km/h
677 29-03-2003 15:42:59 21.1 C 6.82 g/m*3 21.1 C 0 km/h
678 29-03-2003 15:55:38 21 C 6.96 g/m*3 21 C 0 km/h
679 29-03-2003 16:07:16 20.3 C 7.03 g/m*3 20.3 C 0 km/h
680 29-03-2003 16:19:16 18.8 C 7.57 g/m*3 18.8 C 0 km/h
681 29-03-2003 16:31:16 17.1 C 7.42 g/m*3 17.1 C 0 km/h
682 29-03-2003 16:43:17 14.6 C 10.76 g/m*3 14.6 C 0 km/h
683 29-03-2003 16:55:16 15.1 C 11.48 g/m*3 15.1 C 0 km/h
684 29-03-2003 17:07:17 15.2 C 11.42 g/m*3 15.2 C 0 km/h
685 29-03-2003 17:19:17 15.7 C 11.77 g/m*3 15.7 C 0 km/h
686 29-03-2003 17:31:17 15.9 C 11.65 g/m*3 15.9 C 0 km/h
687 29-03-2003 17:43:16 15.7 C 11.11 g/m*3 15.7 C 0 km/h
688 29-03-2003 17:55:16 15.3 C 10.97 g/m*3 15.3 C 0 km/h
689 29-03-2003 18:07:16 14.9 C 10.96 g/m*3 14.9 C 0 km/h
690 29-03-2003 18:19:16 14.7 C 10.7 g/m*3 14.7 C 0 km/h
691 29-03-2003 18:31:16 14.5 C 10.45 g/m*3 14.5 C 0 km/h
692 29-03-2003 18:43:16 14.4 C 10.26 g/m*3 14.4 C 0 km/h
693 29-03-2003 18:55:16 14.3 C 10.32 g/m*3 14.3 C 0 km/h
694 29-03-2003 19:07:16 14.1 C 9.95 g/m*3 14.1 C 0 km/h
695 29-03-2003 19:19:16 14.1 C 10.07 g/m*3 14.1 C 0 km/h
696 29-03-2003 19:31:16 14.1 C 10.07 g/m*3 14.1 C 0 km/h
697 29-03-2003 19:43:15 14.2 C 10.14 g/m*3 14.2 C 0 km/h
698 29-03-2003 19:55:15 14.1 C 9.95 g/m*3 14.1 C 0 km/h
699 29-03-2003 20:07:15 14 C 9.89 g/m*3 14 C 0 km/h
700 29-03-2003 20:19:15 13.9 C 9.71 g/m*3 13.9 C 0 km/h
Sensor: Nr:Datum:Temp:Abs-Feuchte:Windchill:Wind:
Aussen-T/F 701 29-03-2003 20:31:15 13.7 C 9.47 g/m*3 13.7 C 0 km/h
702 29-03-2003 20:43:16 13.6 C 9.3 g/m*3 13.6 C 0 km/h
703 29-03-2003 20:55:16 13.6 C 9.42 g/m*3 13.6 C 0 km/h
704 29-03-2003 21:07:16 13.5 C 9.36 g/m*3 13.5 C 0 km/h
705 29-03-2003 21:19:16 13.5 C 9.36 g/m*3 13.5 C 0 km/h
706 29-03-2003 21:31:16 13.5 C 9.47 g/m*3 13.5 C 0 km/h
707 29-03-2003 21:43:15 13.6 C 9.42 g/m*3 13.6 C 0 km/h
708 29-03-2003 21:55:15 13.5 C 9.36 g/m*3 13.5 C 0 km/h
709 29-03-2003 23:08:16 13.4 C 9.42 g/m*3 13.4 C 0 km/h
710 29-03-2003 23:20:16 13.4 C 9.3 g/m*3 13.4 C 0 km/h
711 29-03-2003 23:32:16 13.4 C 9.42 g/m*3 13.4 C 0 km/h
712 29-03-2003 23:44:16 13.4 C 9.42 g/m*3 13.4 C 0 km/h
713 29-03-2003 23:56:16 13.3 C 9.36 g/m*3 13.3 C 0 km/h
714 30-03-2003 00:08:16 13.3 C 9.36 g/m*3 13.3 C 0 km/h
715 30-03-2003 00:20:16 13.2 C 9.19 g/m*3 13.2 C 0 km/h
716 30-03-2003 00:32:16 13.3 C 9.24 g/m*3 13.3 C 0 km/h
717 30-03-2003 00:44:16 13.2 C 9.3 g/m*3 13.2 C 0 km/h
718 30-03-2003 00:56:16 13 C 9.19 g/m*3 13 C 0 km/h
719 30-03-2003 01:08:16 12.8 C 9.3 g/m*3 12.8 C 0 km/h
720 30-03-2003 01:20:16 12.7 C 9.24 g/m*3 12.7 C 0 km/h
721 30-03-2003 01:44:16 12.2 C 9.06 g/m*3 12.2 C 0 km/h
722 30-03-2003 01:56:16 11.8 C 9.05 g/m*3 11.8 C 0 km/h
723 30-03-2003 02:08:16 11.7 C 9.1 g/m*3 11.7 C 0 km/h
724 30-03-2003 02:20:16 11.4 C 8.93 g/m*3 11.4 C 0 km/h
725 30-03-2003 02:32:16 11.3 C 8.87 g/m*3 11.3 C 0 km/h
Sensor: Nr:Datum:Temp:Abs-Feuchte:Windchill:Wind:
Aussen-T/F 726 30-03-2003 02:44:16 11.1 C 8.76 g/m*3 11.1 C 0 km/h
727 30-03-2003 02:56:16 11 C 8.81 g/m*3 11 C 0 km/h
728 30-03-2003 04:08:16 10.7 C 8.64 g/m*3 10.7 C 0 km/h
729 30-03-2003 04:20:16 10.6 C 8.59 g/m*3 10.6 C 0 km/h
730 30-03-2003 04:32:16 10.4 C 8.48 g/m*3 10.4 C 0 km/h
731 30-03-2003 04:44:16 10.4 C 8.58 g/m*3 10.4 C 0 km/h
732 30-03-2003 04:56:16 10.2 C 8.47 g/m*3 10.2 C 0 km/h
733 30-03-2003 05:08:16 10.1 C 8.42 g/m*3 10.1 C 0 km/h
734 30-03-2003 05:20:16 10.1 C 8.42 g/m*3 10.1 C 0 km/h
735 30-03-2003 05:32:16 10.1 C 8.42 g/m*3 10.1 C 0 km/h
736 30-03-2003 05:44:16 10 C 8.36 g/m*3 10 C 0 km/h
737 30-03-2003 05:56:16 10 C 8.36 g/m*3 10 C 0 km/h
738 30-03-2003 06:08:16 9.9 C 8.4 g/m*3 9.9 C 0 km/h
739 30-03-2003 06:20:16 9.8 C 8.35 g/m*3 9.8 C 0 km/h
740 30-03-2003 06:32:16 9.8 C 8.35 g/m*3 9.8 C 0 km/h
741 30-03-2003 06:44:16 9.8 C 8.35 g/m*3 9.8 C 0 km/h
742 30-03-2003 06:56:16 10 C 8.36 g/m*3 10 C 0 km/h
743 30-03-2003 07:08:16 10.1 C 8.32 g/m*3 10.1 C 0 km/h
744 30-03-2003 07:20:16 10.1 C 8.32 g/m*3 10.1 C 0 km/h
745 30-03-2003 07:32:16 10.1 C 8.23 g/m*3 10.1 C 0 km/h
746 30-03-2003 07:44:16 10 C 8.17 g/m*3 10 C 0 km/h
747 30-03-2003 07:56:16 9.9 C 8.22 g/m*3 9.9 C 0 km/h
748 30-03-2003 08:08:16 9.8 C 8.16 g/m*3 9.8 C 0 km/h
749 30-03-2003 08:20:16 9.8 C 8.16 g/m*3 9.8 C 0 km/h
750 30-03-2003 08:32:16 10 C 8.17 g/m*3 10 C 0 km/h
Sensor: Nr:Datum:Temp:Abs-Feuchte:Windchill:Wind:
Aussen-T/F 751 30-03-2003 08:44:16 10.1 C 8.23 g/m*3 10.1 C 0 km/h
752 30-03-2003 08:56:16 10.2 C 8.28 g/m*3 10.2 C 0 km/h
753 30-03-2003 09:08:16 10.4 C 8.38 g/m*3 10.4 C 0 km/h
754 30-03-2003 09:20:16 10.5 C 8.34 g/m*3 10.5 C 0 km/h
755 30-03-2003 09:32:16 10.6 C 8.39 g/m*3 10.6 C 0 km/h
756 30-03-2003 09:44:16 10.8 C 8.4 g/m*3 10.8 C 0 km/h
757 30-03-2003 09:56:16 10.8 C 8.4 g/m*3 10.8 C 0 km/h
758 30-03-2003 10:08:16 11 C 8.41 g/m*3 11 C 0 km/h
759 30-03-2003 10:20:16 11.1 C 8.36 g/m*3 11.1 C 0 km/h
760 30-03-2003 10:32:16 11.2 C 8.41 g/m*3 11.2 C 0 km/h
761 30-03-2003 10:44:16 12 C 8.63 g/m*3 12 C 0 km/h
762 30-03-2003 10:56:16 12.3 C 8.47 g/m*3 12.3 C 0 km/h
763 30-03-2003 11:08:16 12.6 C 8.52 g/m*3 12.6 C 0 km/h
764 30-03-2003 11:20:16 13 C 8.51 g/m*3 13 C 0 km/h
765 30-03-2003 11:32:16 13.4 C 8.49 g/m*3 13.4 C 0 km/h
766 30-03-2003 11:44:16 13.9 C 8.63 g/m*3 13.9 C 0 km/h
767 30-03-2003 11:56:16 14.2 C 8.55 g/m*3 14.2 C 0 km/h
768 30-03-2003 12:08:16 14.7 C 8.56 g/m*3 14.7 C 0 km/h
769 30-03-2003 12:20:16 15.5 C 8.86 g/m*3 15.5 C 0 km/h
770 30-03-2003 12:32:16 16.6 C 9.18 g/m*3 16.6 C 0 km/h
771 30-03-2003 12:44:16 16.6 C 9.75 g/m*3 16.6 C 0 km/h
772 30-03-2003 12:56:00 15.6 C 10.11 g/m*3 15.6 C 0 km/h
773 30-03-2003 13:08:01 15.6 C 9.97 g/m*3 15.6 C 0 km/h
774 30-03-2003 13:20:01 16.4 C 9.77 g/m*3 16.4 C 0 km/h
775 30-03-2003 13:32:00 17.6 C 9.45 g/m*3 17.6 C 0 km/h
Sensor: Nr:Datum:Temp:Abs-Feuchte:Windchill:Wind:
Aussen-T/F 776 30-03-2003 13:44:00 17.9 C 9.47 g/m*3 17.9 C 0 km/h
777 30-03-2003 13:56:00 18.3 C 9.54 g/m*3 18.3 C 0 km/h
778 30-03-2003 13:56:01 20.4 C 8.49 g/m*3 20.4 C 0 km/h
779 30-03-2003 14:08:02 20.3 C 8.09 g/m*3 20.3 C 0 km/h
780 30-03-2003 14:08:12 19 C 9.29 g/m*3 19 C 0 km/h
781 30-03-2003 14:20:02 19.2 C 7.75 g/m*3 19.2 C 0 km/h
782 30-03-2003 14:20:12 20.5 C 8.72 g/m*3 20.5 C 0 km/h
783 30-03-2003 14:32:00 19.2 C 8.08 g/m*3 19.2 C 0 km/h
784 30-03-2003 14:44:00 19.2 C 7.91 g/m*3 19.2 C 0 km/h
785 30-03-2003 14:56:00 20 C 8.3 g/m*3 20 C 0 km/h
786 30-03-2003 15:08:01 21 C 8.24 g/m*3 21 C 0 km/h
787 30-03-2003 15:20:01 21.2 C 8.52 g/m*3 21.2 C 0 km/h
788 30-03-2003 15:32:01 20.8 C 8.15 g/m*3 20.8 C 0 km/h
789 30-03-2003 15:44:01 19.5 C 8.06 g/m*3 19.5 C 0 km/h
790 30-03-2003 15:56:01 19 C 7.99 g/m*3 19 C 0 km/h
791 30-03-2003 16:08:02 19.3 C 7.96 g/m*3 19.3 C 0 km/h
792 30-03-2003 16:20:02 19.2 C 7.75 g/m*3 19.2 C 0 km/h
793 30-03-2003 16:32:02 19.1 C 7.38 g/m*3 19.1 C 0 km/h
794 30-03-2003 16:44:02 18.3 C 7.19 g/m*3 18.3 C 0 km/h
795 30-03-2003 16:56:02 18 C 7.37 g/m*3 18 C 0 km/h
796 30-03-2003 17:08:01 17.7 C 7.54 g/m*3 17.7 C 0 km/h
797 30-03-2003 17:20:01 17.7 C 7.54 g/m*3 17.7 C 0 km/h
798 30-03-2003 17:32:01 17.4 C 7.41 g/m*3 17.4 C 0 km/h
799 30-03-2003 17:44:01 17.3 C 7.22 g/m*3 17.3 C 0 km/h
800 30-03-2003 17:56:01 17.8 C 7.29 g/m*3 17.8 C 0 km/h
Sensor: Nr:Datum:Temp:Abs-Feuchte:Windchill:Wind:
Aussen-T/F 801 30-03-2003 18:08:02 17.6 C 7.2 g/m*3 17.6 C 0 km/h
802 30-03-2003 18:20:02 17.2 C 7.03 g/m*3 17.2 C 0 km/h
803 30-03-2003 18:32:02 17 C 6.66 g/m*3 17 C 0 km/h
804 30-03-2003 18:44:02 16.9 C 6.62 g/m*3 16.9 C 0 km/h
805 30-03-2003 18:56:02 16.6 C 6.07 g/m*3 16.6 C 0 km/h
806 30-03-2003 19:08:01 16.6 C 5.93 g/m*3 16.6 C 0 km/h
807 30-03-2003 19:20:01 16.6 C 5.93 g/m*3 16.6 C 0 km/h
808 30-03-2003 19:32:04 16.2 C 5.52 g/m*3 16.2 C 0 km/h
809 30-03-2003 19:44:04 15.8 C 5.52 g/m*3 15.8 C 0 km/h
810 30-03-2003 19:56:04 15.6 C 5.45 g/m*3 15.6 C 0 km/h
811 30-03-2003 20:08:03 15.3 C 5.09 g/m*3 15.3 C 0 km/h
812 30-03-2003 20:20:03 14.8 C 4.94 g/m*3 14.8 C 0 km/h
813 30-03-2003 20:32:14 14.7 C 4.91 g/m*3 14.7 C 0 km/h
814 30-03-2003 20:44:14 14.1 C 4.98 g/m*3 14.1 C 0 km/h
815 30-03-2003 20:56:14 13.8 C 5.12 g/m*3 13.8 C 0 km/h
816 30-03-2003 21:08:01 13.8 C 5.24 g/m*3 13.8 C 0 km/h
817 30-03-2003 21:20:01 13.5 C 5.38 g/m*3 13.5 C 0 km/h
818 30-03-2003 21:33:17 13.4 C 5.58 g/m*3 13.4 C 0 km/h
819 30-03-2003 21:45:17 13.1 C 5.59 g/m*3 13.1 C 0 km/h
820 30-03-2003 21:57:17 13.1 C 5.71 g/m*3 13.1 C 0 km/h
821 30-03-2003 22:09:17 12.9 C 5.97 g/m*3 12.9 C 0 km/h
822 30-03-2003 22:21:17 12.7 C 6.12 g/m*3 12.7 C 0 km/h
823 30-03-2003 22:33:17 12.4 C 6.12 g/m*3 12.4 C 0 km/h
824 30-03-2003 22:45:17 12.1 C 6.11 g/m*3 12.1 C 0 km/h
825 30-03-2003 22:57:17 11.8 C 6.31 g/m*3 11.8 C 0 km/h
Sensor: Nr:Datum:Temp:Abs-Feuchte:Windchill:Wind:
Aussen-T/F 826 30-03-2003 23:09:17 11.6 C 6.44 g/m*3 11.6 C 0 km/h
827 30-03-2003 23:21:17 11.3 C 6.32 g/m*3 11.3 C 0 km/h
828 30-03-2003 23:33:17 11 C 6.31 g/m*3 11 C 0 km/h
829 30-03-2003 23:45:17 11.1 C 6.35 g/m*3 11.1 C 0 km/h
830 30-03-2003 23:57:17 10.9 C 6.37 g/m*3 10.9 C 0 km/h
831 31-03-2003 00:09:17 10.6 C 6.25 g/m*3 10.6 C 0 km/h
832 31-03-2003 00:21:17 10.5 C 6.3 g/m*3 10.5 C 0 km/h
833 31-03-2003 00:33:17 10.5 C 6.21 g/m*3 10.5 C 0 km/h
834 31-03-2003 00:45:17 10.4 C 6.07 g/m*3 10.4 C 0 km/h
835 31-03-2003 00:57:17 10.2 C 6 g/m*3 10.2 C 0 km/h
836 31-03-2003 01:09:17 10.1 C 5.96 g/m*3 10.1 C 0 km/h
837 31-03-2003 01:21:17 9.9 C 6.07 g/m*3 9.9 C 0 km/h
838 31-03-2003 01:33:17 9.9 C 6.07 g/m*3 9.9 C 0 km/h
839 31-03-2003 01:45:17 9.6 C 5.95 g/m*3 9.6 C 0 km/h
840 31-03-2003 01:57:17 9.3 C 5.93 g/m*3 9.3 C 0 km/h
841 31-03-2003 02:09:17 9.1 C 5.86 g/m*3 9.1 C 0 km/h
842 31-03-2003 02:21:17 9 C 5.82 g/m*3 9 C 0 km/h
843 31-03-2003 02:33:17 8.7 C 5.79 g/m*3 8.7 C 0 km/h
844 31-03-2003 02:45:17 8.6 C 5.67 g/m*3 8.6 C 0 km/h
845 31-03-2003 02:57:17 8.4 C 5.68 g/m*3 8.4 C 0 km/h
846 31-03-2003 03:09:17 8 C 5.62 g/m*3 8 C 0 km/h
847 31-03-2003 03:21:17 7.8 C 5.71 g/m*3 7.8 C 0 km/h
848 31-03-2003 03:33:17 7.8 C 5.71 g/m*3 7.8 C 0 km/h
849 31-03-2003 03:45:17 7.5 C 5.6 g/m*3 7.5 C 0 km/h
850 31-03-2003 03:57:17 7.3 C 5.61 g/m*3 7.3 C 0 km/h
Sensor: Nr:Datum:Temp:Abs-Feuchte:Windchill:Wind:
Aussen-T/F 851 31-03-2003 04:09:17 7.2 C 5.65 g/m*3 7.2 C 0 km/h
852 31-03-2003 04:21:17 7 C 5.66 g/m*3 7 C 0 km/h
853 31-03-2003 04:33:17 6.8 C 5.66 g/m*3 6.8 C 0 km/h
854 31-03-2003 04:45:17 6.8 C 5.74 g/m*3 6.8 C 0 km/h
855 31-03-2003 04:57:17 6.3 C 5.63 g/m*3 6.3 C 0 km/h
856 31-03-2003 05:09:17 6.2 C 5.66 g/m*3 6.2 C 0 km/h
857 31-03-2003 05:21:17 5.7 C 5.55 g/m*3 5.7 C 0 km/h
858 31-03-2003 05:33:17 5.7 C 5.69 g/m*3 5.7 C 0 km/h
859 31-03-2003 05:45:17 5.8 C 5.8 g/m*3 5.8 C 0 km/h
860 31-03-2003 05:57:17 5.7 C 5.84 g/m*3 5.7 C 0 km/h
861 31-03-2003 06:09:17 5.4 C 5.79 g/m*3 5.4 C 0 km/h
862 31-03-2003 06:21:17 5.5 C 5.9 g/m*3 5.5 C 0 km/h
863 31-03-2003 06:33:17 5.8 C 5.95 g/m*3 5.8 C 0 km/h
864 31-03-2003 06:45:17 5.6 C 5.8 g/m*3 5.6 C 0 km/h
865 31-03-2003 06:57:17 5.3 C 5.68 g/m*3 5.3 C 0 km/h
866 31-03-2003 07:09:17 5.1 C 5.54 g/m*3 5.1 C 0 km/h
867 31-03-2003 07:21:17 4.9 C 5.54 g/m*3 4.9 C 0 km/h
868 31-03-2003 07:33:17 4.7 C 5.46 g/m*3 4.7 C 0 km/h
869 31-03-2003 07:45:17 4.5 C 5.46 g/m*3 4.5 C 0 km/h
870 31-03-2003 07:57:00 4.5 C 5.46 g/m*3 4.5 C 0 km/h
871 31-03-2003 08:09:01 4.7 C 5.46 g/m*3 4.7 C 0 km/h
872 31-03-2003 08:21:01 4.8 C 5.5 g/m*3 4.8 C 0 km/h
873 31-03-2003 08:33:00 4.8 C 5.43 g/m*3 4.8 C 0 km/h
874 31-03-2003 08:45:00 5 C 5.44 g/m*3 5 C 0 km/h
875 31-03-2003 08:57:00 5.3 C 5.41 g/m*3 5.3 C 0 km/h
Sensor: Nr:Datum:Temp:Abs-Feuchte:Windchill:Wind:
Aussen-T/F 876 31-03-2003 09:09:00 5.6 C 5.3 g/m*3 5.6 C 0 km/h
877 31-03-2003 09:21:00 5.6 C 5.09 g/m*3 5.6 C 0 km/h
878 31-03-2003 09:33:01 5.8 C 5.01 g/m*3 5.8 C 0 km/h
879 31-03-2003 09:45:01 6.3 C 4.89 g/m*3 6.3 C 0 km/h
880 31-03-2003 09:57:01 6.8 C 4.97 g/m*3 6.8 C 0 km/h
881 31-03-2003 10:09:01 7 C 4.73 g/m*3 7 C 0 km/h
882 31-03-2003 10:21:01 7.6 C 4.99 g/m*3 7.6 C 0 km/h
883 31-03-2003 10:33:01 8.3 C 4.89 g/m*3 8.3 C 0 km/h
884 31-03-2003 10:45:01 8 C 4.46 g/m*3 8 C 0 km/h
885 31-03-2003 10:57:01 8.4 C 4.5 g/m*3 8.4 C 0 km/h
886 31-03-2003 11:09:02 8.6 C 4.38 g/m*3 8.6 C 0 km/h
887 31-03-2003 11:21:02 8.9 C 4.56 g/m*3 8.9 C 0 km/h
888 31-03-2003 11:33:01 9.1 C 4.53 g/m*3 9.1 C 0 km/h
889 31-03-2003 11:45:01 9.7 C 4.43 g/m*3 9.7 C 0 km/h
890 31-03-2003 11:57:01 10.3 C 4.6 g/m*3 10.3 C 0 km/h
891 31-03-2003 12:09:00 11.8 C 4.32 g/m*3 11.8 C 0 km/h
892 31-03-2003 12:21:01 12.3 C 4.13 g/m*3 12.3 C 0 km/h
893 31-03-2003 12:33:02 12 C 3.94 g/m*3 12 C 0 km/h
894 31-03-2003 12:45:02 12.1 C 3.86 g/m*3 12.1 C 0 km/h
895 31-03-2003 12:57:02 13 C 3.97 g/m*3 13 C 0 km/h
896 31-03-2003 13:09:33 13.3 C 3.93 g/m*3 13.3 C 0 km/h
897 31-03-2003 13:21:01 13.1 C 3.99 g/m*3 13.1 C 0 km/h
898 31-03-2003 13:33:02 14.1 C 3.76 g/m*3 14.1 C 0 km/h
899 31-03-2003 13:45:02 13.5 C 3.86 g/m*3 13.5 C 0 km/h
900 31-03-2003 13:57:02 14.1 C 4 g/m*3 14.1 C 0 km/h
Sensor: Nr:Datum:Temp:Abs-Feuchte:Windchill:Wind:
Aussen-T/F 901 31-03-2003 14:09:00 14.6 C 4 g/m*3 14.6 C 0 km/h
902 31-03-2003 14:21:00 14.7 C 3.9 g/m*3 14.7 C 0 km/h
903 31-03-2003 14:33:01 15.3 C 4.05 g/m*3 15.3 C 0 km/h
904 31-03-2003 14:45:01 15.5 C 4.23 g/m*3 15.5 C 0 km/h
905 31-03-2003 14:57:01 16.1 C 4.11 g/m*3 16.1 C 0 km/h
906 31-03-2003 15:09:02 16 C 3.95 g/m*3 16 C 0 km/h
907 31-03-2003 15:21:02 17 C 3.91 g/m*3 17 C 0 km/h
908 31-03-2003 15:33:02 17.7 C 4.07 g/m*3 17.7 C 0 km/h
909 31-03-2003 15:45:02 16.8 C 3.57 g/m*3 16.8 C 0 km/h
910 31-03-2003 15:57:02 17 C 3.91 g/m*3 17 C 0 km/h
911 31-03-2003 16:09:01 17.2 C 3.66 g/m*3 17.2 C 0 km/h
912 31-03-2003 16:21:01 17.7 C 3.62 g/m*3 17.7 C 0 km/h
913 31-03-2003 16:33:01 16.8 C 3.57 g/m*3 16.8 C 0 km/h
914 31-03-2003 16:45:01 18.3 C 3.91 g/m*3 18.3 C 0 km/h
915 31-03-2003 16:57:01 19.3 C 3.98 g/m*3 19.3 C 0 km/h
916 31-03-2003 17:09:01 18.7 C 3.2 g/m*3 18.7 C 0 km/h
917 31-03-2003 17:21:01 18.3 C 3.44 g/m*3 18.3 C 0 km/h
918 31-03-2003 17:33:01 18.1 C 3.4 g/m*3 18.1 C 0 km/h
919 31-03-2003 17:45:01 18.5 C 3.32 g/m*3 18.5 C 0 km/h
920 31-03-2003 17:57:01 18.4 C 3.3 g/m*3 18.4 C 0 km/h
921 31-03-2003 18:09:00 18.4 C 3.3 g/m*3 18.4 C 0 km/h
922 31-03-2003 18:21:00 18.3 C 3.6 g/m*3 18.3 C 0 km/h
923 31-03-2003 18:33:02 17.6 C 3.45 g/m*3 17.6 C 0 km/h
924 31-03-2003 18:45:02 17 C 3.62 g/m*3 17 C 0 km/h
925 31-03-2003 18:57:02 16.4 C 3.63 g/m*3 16.4 C 0 km/h
Sensor: Nr:Datum:Temp:Abs-Feuchte:Windchill:Wind:
Aussen-T/F 926 31-03-2003 19:09:02 16.1 C 3.7 g/m*3 16.1 C 0 km/h
927 31-03-2003 19:21:02 15.4 C 3.81 g/m*3 15.4 C 0 km/h
928 31-03-2003 19:33:01 15.1 C 3.87 g/m*3 15.1 C 0 km/h
929 31-03-2003 19:45:01 14.4 C 4.08 g/m*3 14.4 C 0 km/h
930 31-03-2003 19:57:01 13.7 C 4.5 g/m*3 13.7 C 0 km/h
931 31-03-2003 20:09:01 12.8 C 4.59 g/m*3 12.8 C 0 km/h
932 31-03-2003 20:21:01 12.1 C 4.5 g/m*3 12.1 C 0 km/h
933 31-03-2003 20:33:01 11.5 C 4.44 g/m*3 11.5 C 0 km/h
934 31-03-2003 20:45:01 10.8 C 4.65 g/m*3 10.8 C 0 km/h
935 31-03-2003 20:57:01 10.5 C 4.85 g/m*3 10.5 C 0 km/h
936 31-03-2003 21:09:01 10.5 C 4.85 g/m*3 10.5 C 0 km/h
937 31-03-2003 21:21:01 10.3 C 4.79 g/m*3 10.3 C 0 km/h
938 31-03-2003 21:33:02 10 C 4.89 g/m*3 10 C 0 km/h
939 31-03-2003 21:45:02 9.6 C 5.04 g/m*3 9.6 C 0 km/h
940 31-03-2003 21:57:02 9.3 C 4.94 g/m*3 9.3 C 0 km/h
941 31-03-2003 22:10:02 9.2 C 5 g/m*3 9.2 C 0 km/h
942 31-03-2003 22:22:02 8.9 C 5.08 g/m*3 8.9 C 0 km/h
943 31-03-2003 22:34:02 8.6 C 4.98 g/m*3 8.6 C 0 km/h
944 31-03-2003 22:46:02 8.4 C 5.01 g/m*3 8.4 C 0 km/h
945 31-03-2003 22:58:02 8 C 4.96 g/m*3 8 C 0 km/h
946 31-03-2003 23:10:02 7.7 C 5.03 g/m*3 7.7 C 0 km/h
947 31-03-2003 23:22:02 7.5 C 4.8 g/m*3 7.5 C 0 km/h
948 31-03-2003 23:34:02 7.2 C 4.87 g/m*3 7.2 C 0 km/h
949 31-03-2003 23:46:02 7 C 4.88 g/m*3 7 C 0 km/h
950 31-03-2003 23:58:02 6.7 C 4.86 g/m*3 6.7 C 0 km/h
Sensor: Nr:Datum:Temp:Abs-Feuchte:Windchill:Wind:
Aussen-T/F 951 01-04-2003 00:10:02 6.5 C 4.8 g/m*3 6.5 C 0 km/h
952 01-04-2003 00:22:02 6 C 4.65 g/m*3 6 C 0 km/h
953 01-04-2003 00:34:02 6 C 4.72 g/m*3 6 C 0 km/h
954 01-04-2003 00:46:02 5.7 C 4.7 g/m*3 5.7 C 0 km/h
955 01-04-2003 00:58:02 5.4 C 4.67 g/m*3 5.4 C 0 km/h
956 01-04-2003 01:10:02 5.2 C 4.61 g/m*3 5.2 C 0 km/h
957 01-04-2003 01:22:02 4.8 C 4.49 g/m*3 4.8 C 0 km/h
958 01-04-2003 01:34:02 4.8 C 4.63 g/m*3 4.8 C 0 km/h
959 01-04-2003 01:46:02 4.6 C 4.63 g/m*3 4.6 C 0 km/h
960 01-04-2003 01:58:02 4.6 C 4.7 g/m*3 4.6 C 0 km/h
961 01-04-2003 02:10:02 4.2 C 4.7 g/m*3 4.2 C 0 km/h
962 01-04-2003 02:22:02 4.1 C 4.67 g/m*3 4.1 C 0 km/h
963 01-04-2003 02:34:02 4 C 4.64 g/m*3 4 C 0 km/h
964 01-04-2003 02:46:02 3.6 C 4.58 g/m*3 3.6 C 0 km/h
965 01-04-2003 02:58:02 3.7 C 4.61 g/m*3 3.7 C 0 km/h
966 01-04-2003 03:10:02 3.6 C 4.64 g/m*3 3.6 C 0 km/h
967 01-04-2003 03:22:02 3.6 C 4.64 g/m*3 3.6 C 0 km/h
968 01-04-2003 03:34:02 3.5 C 4.67 g/m*3 3.5 C 0 km/h
969 01-04-2003 03:46:02 3.3 C 4.55 g/m*3 3.3 C 0 km/h
970 01-04-2003 03:58:02 3.2 C 4.58 g/m*3 3.2 C 0 km/h
971 01-04-2003 04:10:02 2.8 C 4.58 g/m*3 2.8 C 0 km/h
972 01-04-2003 04:22:02 2.5 C 4.48 g/m*3 2.5 C 0 km/h
973 01-04-2003 04:34:02 2.3 C 4.54 g/m*3 2.3 C 0 km/h
974 01-04-2003 04:58:02 2.1 C 4.53 g/m*3 2.1 C 0 km/h
975 01-04-2003 05:10:02 1.8 C 4.49 g/m*3 1.8 C 0 km/h
Sensor: Nr:Datum:Temp:Abs-Feuchte:Windchill:Wind:
Aussen-T/F 976 01-04-2003 05:22:02 1.8 C 4.55 g/m*3 1.8 C 0 km/h
977 01-04-2003 05:34:02 1.7 C 4.52 g/m*3 1.7 C 0 km/h
978 01-04-2003 05:46:02 1.5 C 4.51 g/m*3 1.5 C 0 km/h
979 01-04-2003 05:58:02 1.5 C 4.51 g/m*3 1.5 C 0 km/h
980 01-04-2003 06:10:02 1.5 C 4.62 g/m*3 1.5 C 0 km/h
981 01-04-2003 06:22:02 1.2 C 4.53 g/m*3 1.2 C 0 km/h
982 01-04-2003 06:34:02 0.7 C 4.42 g/m*3 0.7 C 0 km/h
983 01-04-2003 06:46:02 0.8 C 4.51 g/m*3 0.8 C 0 km/h
984 01-04-2003 06:58:02 0.9 C 4.54 g/m*3 0.9 C 0 km/h
985 01-04-2003 07:10:02 0.7 C 4.47 g/m*3 0.7 C 0 km/h
986 01-04-2003 07:22:02 0.8 C 4.51 g/m*3 0.8 C 0 km/h
987 01-04-2003 07:34:02 0.7 C 4.47 g/m*3 0.7 C 0 km/h
988 01-04-2003 07:46:02 0.6 C 4.44 g/m*3 0.6 C 0 km/h
989 01-04-2003 07:58:02 0.7 C 4.47 g/m*3 0.7 C 0 km/h
990 01-04-2003 08:10:01 0.6 C 4.44 g/m*3 0.6 C 0 km/h
991 01-04-2003 08:22:01 0.8 C 4.51 g/m*3 0.8 C 0 km/h
992 01-04-2003 08:34:01 0.9 C 4.54 g/m*3 0.9 C 0 km/h
993 01-04-2003 08:46:01 1 C 4.52 g/m*3 1 C 0 km/h
994 01-04-2003 08:58:01 1.2 C 4.58 g/m*3 1.2 C 0 km/h
995 01-04-2003 09:10:02 1.5 C 4.73 g/m*3 1.5 C 0 km/h
996 01-04-2003 09:22:02 2 C 4.72 g/m*3 2 C 0 km/h
997 01-04-2003 09:34:02 2.5 C 4.83 g/m*3 2.5 C 0 km/h
998 01-04-2003 09:46:02 3.2 C 4.94 g/m*3 3.2 C 0 km/h
999 01-04-2003 09:58:02 4.1 C 4.93 g/m*3 4.1 C 0 km/h
1000 01-04-2003 10:10:02 4.9 C 5 g/m*3 4.9 C 0 km/h
Sensor: Nr:Datum:Temp:Abs-Feuchte:Windchill:Wind:
Aussen-T/F 1001 01-04-2003 10:22:02 6.1 C 4.97 g/m*3 6.1 C 0 km/h
1002 01-04-2003 10:34:02 7.1 C 5.07 g/m*3 7.1 C 0 km/h
1003 01-04-2003 10:46:02 8.3 C 4.97 g/m*3 8.3 C 0 km/h
1004 01-04-2003 10:58:02 8.9 C 4.91 g/m*3 8.9 C 0 km/h
1005 01-04-2003 11:10:01 9.8 C 4.92 g/m*3 9.8 C 0 km/h
1006 01-04-2003 11:22:01 10.7 C 5.01 g/m*3 10.7 C 0 km/h
1007 01-04-2003 11:34:01 12.1 C 4.83 g/m*3 12.1 C 0 km/h
1008 01-04-2003 11:46:01 12.2 C 4.53 g/m*3 12.2 C 0 km/h
1009 01-04-2003 11:58:01 12.6 C 4.43 g/m*3 12.6 C 0 km/h
1010 01-04-2003 12:10:02 13.6 C 4.12 g/m*3 13.6 C 0 km/h
1011 01-04-2003 12:22:02 13.8 C 3.81 g/m*3 13.8 C 0 km/h
1012 01-04-2003 12:34:01 14.4 C 3.71 g/m*3 14.4 C 0 km/h
1013 01-04-2003 12:46:01 14.9 C 3.7 g/m*3 14.9 C 0 km/h
1014 01-04-2003 12:58:01 15.2 C 3.76 g/m*3 15.2 C 0 km/h
1015 01-04-2003 13:10:01 15.8 C 3.63 g/m*3 15.8 C 0 km/h
1016 01-04-2003 13:22:01 15.5 C 3.3 g/m*3 15.5 C 0 km/h
1017 01-04-2003 13:34:03 16 C 3.68 g/m*3 16 C 0 km/h
1018 01-04-2003 13:46:03 15 C 3.46 g/m*3 15 C 0 km/h
1019 01-04-2003 13:58:03 15.5 C 3.57 g/m*3 15.5 C 0 km/h
1020 01-04-2003 14:10:01 15.9 C 3.39 g/m*3 15.9 C 0 km/h
1021 01-04-2003 14:22:01 16.4 C 3.49 g/m*3 16.4 C 0 km/h
1022 01-04-2003 14:34:02 16.3 C 3.19 g/m*3 16.3 C 0 km/h
1023 01-04-2003 14:46:02 16.9 C 3.16 g/m*3 16.9 C 0 km/h
1024 01-04-2003 14:58:02 17.5 C 2.98 g/m*3 17.5 C 0 km/h
1025 01-04-2003 15:10:02 17.6 C 3 g/m*3 17.6 C 0 km/h
Sensor: Nr:Datum:Temp:Abs-Feuchte:Windchill:Wind:
Aussen-T/F 1026 01-04-2003 15:22:02 17.5 C 2.98 g/m*3 17.5 C 0 km/h
1027 01-04-2003 15:34:01 17.7 C 3.02 g/m*3 17.7 C 0 km/h
1028 01-04-2003 15:46:01 17.8 C 3.04 g/m*3 17.8 C 0 km/h
1029 01-04-2003 15:58:01 17.9 C 3.05 g/m*3 17.9 C 0 km/h
1030 01-04-2003 16:10:02 17.7 C 3.02 g/m*3 17.7 C 0 km/h
1031 01-04-2003 16:22:02 17.8 C 3.04 g/m*3 17.8 C 0 km/h
1032 01-04-2003 16:34:02 17.8 C 3.04 g/m*3 17.8 C 0 km/h
1033 01-04-2003 16:46:02 18 C 3.07 g/m*3 18 C 0 km/h
1034 01-04-2003 16:58:02 17.7 C 3.02 g/m*3 17.7 C 0 km/h
1035 01-04-2003 17:10:02 17.7 C 3.02 g/m*3 17.7 C 0 km/h
1036 01-04-2003 17:22:02 17.4 C 2.96 g/m*3 17.4 C 0 km/h
1037 01-04-2003 17:34:02 17.2 C 2.93 g/m*3 17.2 C 0 km/h
1038 01-04-2003 17:46:02 17 C 2.89 g/m*3 17 C 0 km/h
1039 01-04-2003 17:58:02 16.7 C 2.84 g/m*3 16.7 C 0 km/h
1040 01-04-2003 18:10:01 16.8 C 2.86 g/m*3 16.8 C 0 km/h
1041 01-04-2003 18:22:01 16.6 C 2.83 g/m*3 16.6 C 0 km/h
1042 01-04-2003 18:34:18 16.4 C 2.79 g/m*3 16.4 C 0 km/h
1043 01-04-2003 18:46:18 16.2 C 2.9 g/m*3 16.2 C 0 km/h
1044 01-04-2003 18:58:18 16 C 3.13 g/m*3 16 C 0 km/h
1045 01-04-2003 19:02:35 16 C 3.41 g/m*3 16 C 0 km/h
1046 01-04-2003 19:08:35 15.9 C 3.52 g/m*3 15.9 C 0 km/h
1047 01-04-2003 19:14:35 15.7 C 3.48 g/m*3 15.7 C 0 km/h
1048 01-04-2003 19:18:01 15.7 C 3.48 g/m*3 15.7 C 0 km/h
1049 01-04-2003 19:24:01 15.6 C 3.59 g/m*3 15.6 C 0 km/h
1050 01-04-2003 19:30:01 15.6 C 3.59 g/m*3 15.6 C 0 km/h
Sensor: Nr:Datum:Temp:Abs-Feuchte:Windchill:Wind:
Aussen-T/F 1051 01-04-2003 19:36:02 15.5 C 3.44 g/m*3 15.5 C 0 km/h
1052 01-04-2003 19:42:02 15.4 C 3.55 g/m*3 15.4 C 0 km/h
1053 01-04-2003 19:48:02 15.4 C 3.55 g/m*3 15.4 C 0 km/h
1054 01-04-2003 19:54:02 15.5 C 3.57 g/m*3 15.5 C 0 km/h
1055 01-04-2003 20:00:02 15.4 C 3.81 g/m*3 15.4 C 0 km/h
1056 01-04-2003 20:06:02 15.4 C 3.81 g/m*3 15.4 C 0 km/h
1057 01-04-2003 20:12:02 15.3 C 3.92 g/m*3 15.3 C 0 km/h
1058 01-04-2003 20:18:02 15.2 C 3.89 g/m*3 15.2 C 0 km/h
1059 01-04-2003 20:24:02 15.2 C 3.89 g/m*3 15.2 C 0 km/h
1060 01-04-2003 20:30:02 15.2 C 3.89 g/m*3 15.2 C 0 km/h
1061 01-04-2003 20:36:02 15.1 C 4 g/m*3 15.1 C 0 km/h
1062 01-04-2003 20:42:02 15.2 C 4.15 g/m*3 15.2 C 0 km/h
1063 01-04-2003 20:48:02 15.1 C 4.39 g/m*3 15.1 C 0 km/h
1064 01-04-2003 21:00:02 14.8 C 4.81 g/m*3 14.8 C 0 km/h
1065 01-04-2003 21:06:02 14.2 C 5.49 g/m*3 14.2 C 0 km/h
1066 01-04-2003 21:12:02 12.8 C 6.5 g/m*3 12.8 C 0 km/h
1067 01-04-2003 21:18:02 11.9 C 6.99 g/m*3 11.9 C 0 km/h
1068 01-04-2003 21:24:02 11.3 C 7.24 g/m*3 11.3 C 0 km/h
1069 01-04-2003 21:30:02 11 C 7.31 g/m*3 11 C 0 km/h
1070 01-04-2003 21:36:02 10.7 C 7.46 g/m*3 10.7 C 0 km/h
1071 01-04-2003 21:42:02 10.6 C 7.42 g/m*3 10.6 C 0 km/h
1072 01-04-2003 21:48:02 10.7 C 7.56 g/m*3 10.7 C 0 km/h
1073 01-04-2003 21:54:02 10.4 C 7.61 g/m*3 10.4 C 0 km/h
1074 01-04-2003 22:00:02 10.2 C 7.71 g/m*3 10.2 C 0 km/h
1075 01-04-2003 22:07:02 10.1 C 7.75 g/m*3 10.1 C 0 km/h
Sensor: Nr:Datum:Temp:Abs-Feuchte:Windchill:Wind:
Aussen-T/F 1076 01-04-2003 22:13:02 9.9 C 7.84 g/m*3 9.9 C 0 km/h
1077 01-04-2003 22:19:02 9.8 C 7.79 g/m*3 9.8 C 0 km/h
1078 01-04-2003 22:25:02 9.7 C 7.93 g/m*3 9.7 C 0 km/h
1079 01-04-2003 22:31:02 9.6 C 7.79 g/m*3 9.6 C 0 km/h
1080 01-04-2003 22:37:02 9.5 C 7.83 g/m*3 9.5 C 0 km/h
1081 01-04-2003 22:43:02 9.6 C 7.69 g/m*3 9.6 C 0 km/h
1082 01-04-2003 22:49:02 9.6 C 7.69 g/m*3 9.6 C 0 km/h
1083 01-04-2003 22:55:02 9.6 C 7.6 g/m*3 9.6 C 0 km/h
1084 01-04-2003 23:01:02 9.6 C 7.6 g/m*3 9.6 C 0 km/h
1085 01-04-2003 23:07:02 9.6 C 7.6 g/m*3 9.6 C 0 km/h
1086 01-04-2003 23:13:02 9.7 C 7.65 g/m*3 9.7 C 0 km/h
1087 01-04-2003 23:19:02 9.7 C 7.65 g/m*3 9.7 C 0 km/h
1088 01-04-2003 23:25:02 9.8 C 7.42 g/m*3 9.8 C 0 km/h
1089 01-04-2003 23:31:02 9.7 C 7.19 g/m*3 9.7 C 0 km/h
1090 01-04-2003 23:37:02 9.5 C 7.19 g/m*3 9.5 C 0 km/h
1091 01-04-2003 23:43:02 9.3 C 7.19 g/m*3 9.3 C 0 km/h
1092 01-04-2003 23:49:02 9.2 C 7.14 g/m*3 9.2 C 0 km/h
1093 01-04-2003 23:55:02 9.1 C 7.01 g/m*3 9.1 C 0 km/h
1094 02-04-2003 00:01:02 9.1 C 7.01 g/m*3 9.1 C 0 km/h
1095 02-04-2003 00:07:02 9 C 6.88 g/m*3 9 C 0 km/h
1096 02-04-2003 00:13:02 9 C 6.88 g/m*3 9 C 0 km/h
1097 02-04-2003 00:19:02 8.9 C 6.92 g/m*3 8.9 C 0 km/h
1098 02-04-2003 00:25:02 8.9 C 6.92 g/m*3 8.9 C 0 km/h
1099 02-04-2003 00:31:02 9 C 6.79 g/m*3 9 C 0 km/h
1100 02-04-2003 00:37:02 9 C 6.7 g/m*3 9 C 0 km/h
Sensor: Nr:Datum:Temp:Abs-Feuchte:Windchill:Wind:
Aussen-T/F 1101 02-04-2003 00:43:02 9 C 6.7 g/m*3 9 C 0 km/h
1102 02-04-2003 00:49:02 9 C 6.7 g/m*3 9 C 0 km/h
1103 02-04-2003 00:55:02 9 C 6.7 g/m*3 9 C 0 km/h
1104 02-04-2003 01:01:02 9.3 C 6.83 g/m*3 9.3 C 0 km/h
1105 02-04-2003 01:07:02 7.3 C 6.08 g/m*3 7.3 C 0 km/h
1106 02-04-2003 01:13:02 7 C 6.35 g/m*3 7 C 0 km/h
1107 02-04-2003 01:19:02 6.7 C 6.23 g/m*3 6.7 C 0 km/h
1108 02-04-2003 01:25:02 7 C 6.35 g/m*3 7 C 0 km/h
1109 02-04-2003 01:31:02 6.6 C 6.34 g/m*3 6.6 C 0 km/h
1110 02-04-2003 01:37:02 6.8 C 6.35 g/m*3 6.8 C 0 km/h
1111 02-04-2003 01:43:02 6.7 C 6.38 g/m*3 6.7 C 0 km/h
1112 02-04-2003 01:49:02 6.7 C 6.46 g/m*3 6.7 C 0 km/h
1113 02-04-2003 01:55:02 6.8 C 6.5 g/m*3 6.8 C 0 km/h
1114 02-04-2003 02:01:02 6.7 C 6.46 g/m*3 6.7 C 0 km/h
1115 02-04-2003 02:07:02 6.7 C 6.46 g/m*3 6.7 C 0 km/h
1116 02-04-2003 02:13:02 6.6 C 6.34 g/m*3 6.6 C 0 km/h
1117 02-04-2003 02:19:02 6.7 C 6.31 g/m*3 6.7 C 0 km/h
1118 02-04-2003 02:25:02 6.6 C 6.27 g/m*3 6.6 C 0 km/h
1119 02-04-2003 02:31:02 6.6 C 6.19 g/m*3 6.6 C 0 km/h
1120 02-04-2003 02:37:02 6.5 C 6.22 g/m*3 6.5 C 0 km/h
1121 02-04-2003 02:43:02 6.5 C 6.22 g/m*3 6.5 C 0 km/h
1122 02-04-2003 02:49:02 6.5 C 6.22 g/m*3 6.5 C 0 km/h
1123 02-04-2003 02:55:02 6.5 C 6.22 g/m*3 6.5 C 0 km/h
1124 02-04-2003 03:01:02 6.5 C 6.22 g/m*3 6.5 C 0 km/h
1125 02-04-2003 03:07:02 6.5 C 6.22 g/m*3 6.5 C 0 km/h
Sensor: Nr:Datum:Temp:Abs-Feuchte:Windchill:Wind:
Aussen-T/F 1126 02-04-2003 03:13:02 6.4 C 6.18 g/m*3 6.4 C 0 km/h
1127 02-04-2003 03:19:02 6.4 C 6.18 g/m*3 6.4 C 0 km/h
1128 02-04-2003 03:25:02 6.4 C 6.18 g/m*3 6.4 C 0 km/h
1129 02-04-2003 03:31:02 6.4 C 6.18 g/m*3 6.4 C 0 km/h
1130 02-04-2003 03:37:02 6.4 C 6.18 g/m*3 6.4 C 0 km/h
1131 02-04-2003 03:43:02 6.4 C 6.11 g/m*3 6.4 C 0 km/h
1132 02-04-2003 03:49:02 6.4 C 6.18 g/m*3 6.4 C 0 km/h
1133 02-04-2003 03:55:02 6.2 C 6.18 g/m*3 6.2 C 0 km/h
1134 02-04-2003 04:01:02 6.1 C 6.14 g/m*3 6.1 C 0 km/h
1135 02-04-2003 04:07:02 6.1 C 6.14 g/m*3 6.1 C 0 km/h
1136 02-04-2003 04:13:02 6 C 6.1 g/m*3 6 C 0 km/h
1137 02-04-2003 04:19:02 6 C 6.1 g/m*3 6 C 0 km/h
1138 02-04-2003 04:25:02 5.9 C 5.98 g/m*3 5.9 C 0 km/h
1139 02-04-2003 04:31:02 6 C 5.88 g/m*3 6 C 0 km/h
1140 02-04-2003 04:37:02 6 C 5.88 g/m*3 6 C 0 km/h
1141 02-04-2003 04:43:02 5.9 C 5.91 g/m*3 5.9 C 0 km/h
1142 02-04-2003 04:49:02 5.9 C 5.91 g/m*3 5.9 C 0 km/h
1143 02-04-2003 04:55:02 5.8 C 5.87 g/m*3 5.8 C 0 km/h
1144 02-04-2003 05:01:02 5.9 C 5.84 g/m*3 5.9 C 0 km/h
1145 02-04-2003 05:07:02 6 C 5.66 g/m*3 6 C 0 km/h
1146 02-04-2003 05:13:02 5.9 C 5.77 g/m*3 5.9 C 0 km/h
1147 02-04-2003 05:19:02 5.7 C 5.84 g/m*3 5.7 C 0 km/h
1148 02-04-2003 05:25:02 5.5 C 5.97 g/m*3 5.5 C 0 km/h
1149 02-04-2003 05:31:02 5.3 C 6.03 g/m*3 5.3 C 0 km/h
1150 02-04-2003 05:37:02 5.2 C 6.13 g/m*3 5.2 C 0 km/h
Sensor: Nr:Datum:Temp:Abs-Feuchte:Windchill:Wind:
Aussen-T/F 1151 02-04-2003 05:43:02 5.1 C 6.09 g/m*3 5.1 C 0 km/h
1152 02-04-2003 05:49:02 5.1 C 6.09 g/m*3 5.1 C 0 km/h
1153 02-04-2003 05:55:02 5 C 6.12 g/m*3 5 C 0 km/h
1154 02-04-2003 06:01:02 5 C 6.12 g/m*3 5 C 0 km/h
1155 02-04-2003 06:07:02 4.9 C 6.14 g/m*3 4.9 C 0 km/h
1156 02-04-2003 06:13:02 4.9 C 6.21 g/m*3 4.9 C 0 km/h
1157 02-04-2003 06:19:02 4.8 C 6.1 g/m*3 4.8 C 0 km/h
1158 02-04-2003 06:25:02 4.8 C 6.17 g/m*3 4.8 C 0 km/h
1159 02-04-2003 06:31:02 4.7 C 6.13 g/m*3 4.7 C 0 km/h
1160 02-04-2003 06:37:02 4.8 C 6.24 g/m*3 4.8 C 0 km/h
1161 02-04-2003 06:43:02 4.8 C 6.24 g/m*3 4.8 C 0 km/h
1162 02-04-2003 06:49:02 4.8 C 6.24 g/m*3 4.8 C 0 km/h
1163 02-04-2003 06:55:02 4.8 C 6.17 g/m*3 4.8 C 0 km/h
1164 02-04-2003 07:01:02 4.7 C 6.06 g/m*3 4.7 C 0 km/h
1165 02-04-2003 07:07:02 4.6 C 6.02 g/m*3 4.6 C 0 km/h
1166 02-04-2003 07:13:02 4.4 C 5.94 g/m*3 4.4 C 0 km/h
1167 02-04-2003 07:19:02 4.4 C 5.94 g/m*3 4.4 C 0 km/h
1168 02-04-2003 07:25:02 4.2 C 5.86 g/m*3 4.2 C 0 km/h
1169 02-04-2003 07:31:02 4.1 C 5.82 g/m*3 4.1 C 0 km/h
1170 02-04-2003 07:37:02 4 C 5.79 g/m*3 4 C 0 km/h
1171 02-04-2003 07:43:02 3.9 C 5.81 g/m*3 3.9 C 0 km/h
1172 02-04-2003 07:49:02 3.8 C 5.77 g/m*3 3.8 C 0 km/h
1173 02-04-2003 07:55:02 3.8 C 5.77 g/m*3 3.8 C 0 km/h
1174 02-04-2003 08:01:02 3.7 C 5.73 g/m*3 3.7 C 0 km/h
1175 02-04-2003 08:07:02 3.8 C 5.77 g/m*3 3.8 C 0 km/h
Sensor: Nr:Datum:Temp:Abs-Feuchte:Windchill:Wind:
Aussen-T/F 1176 02-04-2003 08:13:02 3.8 C 5.83 g/m*3 3.8 C 0 km/h
1177 02-04-2003 08:19:02 4.1 C 5.89 g/m*3 4.1 C 0 km/h
1178 02-04-2003 08:25:02 4.1 C 5.82 g/m*3 4.1 C 0 km/h
1179 02-04-2003 08:31:02 4 C 5.72 g/m*3 4 C 0 km/h
1180 02-04-2003 08:37:02 4.1 C 5.7 g/m*3 4.1 C 0 km/h
1181 02-04-2003 08:43:02 4.2 C 5.61 g/m*3 4.2 C 0 km/h
1182 02-04-2003 08:49:02 4.3 C 5.64 g/m*3 4.3 C 0 km/h
1183 02-04-2003 08:55:02 4.3 C 5.64 g/m*3 4.3 C 0 km/h
1184 02-04-2003 09:01:02 4.3 C 5.64 g/m*3 4.3 C 0 km/h
1185 02-04-2003 09:07:03 4.3 C 5.64 g/m*3 4.3 C 0 km/h
1186 02-04-2003 09:13:03 4.3 C 5.64 g/m*3 4.3 C 0 km/h
1187 02-04-2003 09:19:03 4.3 C 5.71 g/m*3 4.3 C 0 km/h
1188 02-04-2003 09:25:03 4.2 C 5.67 g/m*3 4.2 C 0 km/h
1189 02-04-2003 09:31:03 4.1 C 5.63 g/m*3 4.1 C 0 km/h
1190 02-04-2003 09:37:01 4.1 C 5.63 g/m*3 4.1 C 0 km/h
1191 02-04-2003 09:43:01 4.1 C 5.63 g/m*3 4.1 C 0 km/h
1192 02-04-2003 09:49:01 4.2 C 5.73 g/m*3 4.2 C 0 km/h
1193 02-04-2003 09:55:01 4.2 C 5.73 g/m*3 4.2 C 0 km/h
1194 02-04-2003 10:01:01 4.3 C 5.77 g/m*3 4.3 C 0 km/h
1195 02-04-2003 10:07:02 4.7 C 5.93 g/m*3 4.7 C 0 km/h
1196 02-04-2003 10:13:02 4.6 C 5.82 g/m*3 4.6 C 0 km/h
1197 02-04-2003 10:19:02 4.6 C 5.82 g/m*3 4.6 C 0 km/h
1198 02-04-2003 10:25:02 4.6 C 5.82 g/m*3 4.6 C 0 km/h
1199 02-04-2003 10:31:02 4.6 C 5.82 g/m*3 4.6 C 0 km/h
1200 02-04-2003 10:31:14 4.6 C 5.82 g/m*3 4.6 C 0 km/h
Sensor: Nr:Datum:Temp:Abs-Feuchte:Windchill:Wind:
Aussen-T/F 1201 02-04-2003 10:37:02 4.7 C 5.86 g/m*3 4.7 C 0 km/h
1202 02-04-2003 10:43:02 4.7 C 5.86 g/m*3 4.7 C 0 km/h
1203 02-04-2003 10:49:02 4.7 C 5.86 g/m*3 4.7 C 0 km/h
1204 02-04-2003 10:55:02 4.7 C 5.86 g/m*3 4.7 C 0 km/h
1205 02-04-2003 11:01:02 4.8 C 5.97 g/m*3 4.8 C 0 km/h
1206 02-04-2003 11:07:02 4.9 C 6.01 g/m*3 4.9 C 0 km/h
1207 02-04-2003 11:13:02 5.1 C 5.88 g/m*3 5.1 C 0 km/h
1208 02-04-2003 11:19:02 5.1 C 5.81 g/m*3 5.1 C 0 km/h
1209 02-04-2003 11:25:02 5 C 5.78 g/m*3 5 C 0 km/h
1210 02-04-2003 11:31:02 4.8 C 5.77 g/m*3 4.8 C 0 km/h
1211 02-04-2003 11:37:02 4.7 C 5.73 g/m*3 4.7 C 0 km/h
1212 02-04-2003 11:43:02 4.6 C 5.76 g/m*3 4.6 C 0 km/h
1213 02-04-2003 11:49:02 4.6 C 5.76 g/m*3 4.6 C 0 km/h
1214 02-04-2003 11:55:02 4.7 C 5.86 g/m*3 4.7 C 0 km/h
1215 02-04-2003 12:01:02 5 C 5.91 g/m*3 5 C 0 km/h
1216 02-04-2003 12:07:01 5.2 C 5.99 g/m*3 5.2 C 0 km/h
1217 02-04-2003 12:13:01 5.7 C 6.19 g/m*3 5.7 C 0 km/h
1218 02-04-2003 12:19:01 5.9 C 6.13 g/m*3 5.9 C 0 km/h
1219 02-04-2003 12:25:01 6.1 C 5.99 g/m*3 6.1 C 0 km/h
1220 02-04-2003 12:31:01 6.7 C 6.08 g/m*3 6.7 C 0 km/h
1221 02-04-2003 12:37:02 6.9 C 6 g/m*3 6.9 C 0 km/h
1222 02-04-2003 12:43:02 6.8 C 5.89 g/m*3 6.8 C 0 km/h
1223 02-04-2003 12:49:02 6.9 C 5.85 g/m*3 6.9 C 0 km/h
1224 02-04-2003 12:55:02 7.3 C 5.61 g/m*3 7.3 C 0 km/h
1225 02-04-2003 13:01:02 7.4 C 5.57 g/m*3 7.4 C 0 km/h
Sensor: Nr:Datum:Temp:Abs-Feuchte:Windchill:Wind:
Aussen-T/F 1226 02-04-2003 13:07:01 7.9 C 5.91 g/m*3 7.9 C 0 km/h
1227 02-04-2003 13:13:01 8.8 C 5.57 g/m*3 8.8 C 0 km/h
1228 02-04-2003 13:19:01 8.7 C 5.45 g/m*3 8.7 C 0 km/h
1229 02-04-2003 13:25:01 8.3 C 5.06 g/m*3 8.3 C 0 km/h
1230 02-04-2003 13:31:01 8.2 C 5.19 g/m*3 8.2 C 0 km/h
1231 02-04-2003 13:37:01 8.7 C 5.36 g/m*3 8.7 C 0 km/h
1232 02-04-2003 13:43:01 8.8 C 5.22 g/m*3 8.8 C 0 km/h
1233 02-04-2003 13:49:01 9.8 C 5.1 g/m*3 9.8 C 0 km/h
1234 02-04-2003 13:55:01 9.2 C 4.64 g/m*3 9.2 C 0 km/h
1235 02-04-2003 14:01:01 9 C 4.85 g/m*3 9 C 0 km/h
1236 02-04-2003 14:07:02 8.8 C 5.05 g/m*3 8.8 C 0 km/h
1237 02-04-2003 14:13:02 8.7 C 4.93 g/m*3 8.7 C 0 km/h
1238 02-04-2003 14:19:02 8.7 C 4.93 g/m*3 8.7 C 0 km/h
1239 02-04-2003 14:25:02 9.1 C 4.97 g/m*3 9.1 C 0 km/h
1240 02-04-2003 14:31:02 9.3 C 4.94 g/m*3 9.3 C 0 km/h
1241 02-04-2003 14:37:02 8.8 C 4.96 g/m*3 8.8 C 0 km/h
1242 02-04-2003 14:43:02 7.4 C 5.49 g/m*3 7.4 C 0 km/h
1243 02-04-2003 14:49:02 6.9 C 5.62 g/m*3 6.9 C 0 km/h
1244 02-04-2003 14:55:02 7.1 C 5.69 g/m*3 7.1 C 0 km/h
1245 02-04-2003 15:01:02 7.9 C 5.83 g/m*3 7.9 C 0 km/h
1246 02-04-2003 15:07:02 9.1 C 5.59 g/m*3 9.1 C 0 km/h
1247 02-04-2003 15:13:02 9.4 C 5.16 g/m*3 9.4 C 0 km/h
1248 02-04-2003 15:19:02 10.2 C 5.04 g/m*3 10.2 C 0 km/h
1249 02-04-2003 15:25:02 10 C 4.79 g/m*3 10 C 0 km/h
1250 02-04-2003 15:31:02 10.1 C 4.73 g/m*3 10.1 C 0 km/h
Sensor: Nr:Datum:Temp:Abs-Feuchte:Windchill:Wind:
Aussen-T/F 1251 02-04-2003 15:37:02 10.4 C 4.82 g/m*3 10.4 C 0 km/h
1252 02-04-2003 15:43:02 10 C 4.6 g/m*3 10 C 0 km/h
1253 02-04-2003 15:49:02 9.8 C 4.64 g/m*3 9.8 C 0 km/h
1254 02-04-2003 15:55:02 9.4 C 4.61 g/m*3 9.4 C 0 km/h
1255 02-04-2003 16:01:02 8.6 C 4.73 g/m*3 8.6 C 0 km/h
1256 02-04-2003 16:07:03 7 C 5.5 g/m*3 7 C 0 km/h
1257 02-04-2003 16:13:03 6.9 C 5.7 g/m*3 6.9 C 0 km/h
1258 02-04-2003 16:19:03 6.9 C 5.54 g/m*3 6.9 C 0 km/h
1259 02-04-2003 16:25:03 7.1 C 5.54 g/m*3 7.1 C 0 km/h
1260 02-04-2003 16:31:03 7.1 C 5.46 g/m*3 7.1 C 0 km/h
1261 02-04-2003 16:37:01 7.1 C 5.38 g/m*3 7.1 C 0 km/h
1262 02-04-2003 16:43:01 7.4 C 5.49 g/m*3 7.4 C 0 km/h
1263 02-04-2003 16:49:01 7.5 C 5.52 g/m*3 7.5 C 0 km/h
1264 02-04-2003 16:55:01 7.5 C 5.44 g/m*3 7.5 C 0 km/h
1265 02-04-2003 17:01:01 7.5 C 5.44 g/m*3 7.5 C 0 km/h
1266 02-04-2003 17:07:01 7.4 C 5.41 g/m*3 7.4 C 0 km/h
1267 02-04-2003 17:13:01 7.6 C 5.56 g/m*3 7.6 C 0 km/h
1268 02-04-2003 17:19:01 7.8 C 5.63 g/m*3 7.8 C 0 km/h
1269 02-04-2003 17:25:01 8.4 C 5.68 g/m*3 8.4 C 0 km/h
1270 02-04-2003 17:31:01 8.5 C 5.55 g/m*3 8.5 C 0 km/h
1271 02-04-2003 17:37:02 8.4 C 5.43 g/m*3 8.4 C 0 km/h
1272 02-04-2003 17:43:02 8 C 5.54 g/m*3 8 C 0 km/h
1273 02-04-2003 17:49:02 6.5 C 5.62 g/m*3 6.5 C 0 km/h
1274 02-04-2003 17:55:02 5.2 C 5.58 g/m*3 5.2 C 0 km/h
1275 02-04-2003 18:01:02 4.5 C 5.52 g/m*3 4.5 C 0 km/h
Sensor: Nr:Datum:Temp:Abs-Feuchte:Windchill:Wind:
Aussen-T/F 1276 02-04-2003 18:07:02 4.7 C 5.8 g/m*3 4.7 C 0 km/h
1277 02-04-2003 18:13:02 4.8 C 5.97 g/m*3 4.8 C 0 km/h
1278 02-04-2003 18:19:02 5 C 6.05 g/m*3 5 C 0 km/h
1279 02-04-2003 18:25:02 5 C 6.12 g/m*3 5 C 0 km/h
1280 02-04-2003 18:31:02 5.1 C 6.16 g/m*3 5.1 C 0 km/h
1281 02-04-2003 18:37:01 5.1 C 6.02 g/m*3 5.1 C 0 km/h
1282 02-04-2003 18:43:01 5.1 C 5.88 g/m*3 5.1 C 0 km/h
1283 02-04-2003 18:49:01 5 C 5.78 g/m*3 5 C 0 km/h
1284 02-04-2003 18:55:01 4.9 C 5.67 g/m*3 4.9 C 0 km/h
1285 02-04-2003 19:01:01 4.9 C 5.67 g/m*3 4.9 C 0 km/h
1286 02-04-2003 19:07:01 5.2 C 5.71 g/m*3 5.2 C 0 km/h
1287 02-04-2003 19:13:01 5.7 C 5.76 g/m*3 5.7 C 0 km/h
1288 02-04-2003 19:19:01 5.6 C 5.66 g/m*3 5.6 C 0 km/h
1289 02-04-2003 19:25:01 5.1 C 5.54 g/m*3 5.1 C 0 km/h
1290 02-04-2003 19:31:01 4.7 C 5.66 g/m*3 4.7 C 0 km/h
1291 02-04-2003 19:37:01 4.6 C 5.76 g/m*3 4.6 C 0 km/h
1292 02-04-2003 19:43:01 4.2 C 5.61 g/m*3 4.2 C 0 km/h
1293 02-04-2003 19:49:01 4.1 C 5.63 g/m*3 4.1 C 0 km/h
1294 02-04-2003 19:55:01 4 C 5.66 g/m*3 4 C 0 km/h
1295 02-04-2003 20:01:01 4 C 5.66 g/m*3 4 C 0 km/h
1296 02-04-2003 20:07:09 4.1 C 5.7 g/m*3 4.1 C 0 km/h
1297 02-04-2003 20:13:09 4.2 C 5.73 g/m*3 4.2 C 0 km/h
1298 02-04-2003 20:19:09 4.2 C 5.73 g/m*3 4.2 C 0 km/h
1299 02-04-2003 20:25:09 4.1 C 5.7 g/m*3 4.1 C 0 km/h
1300 02-04-2003 20:31:09 4.2 C 5.73 g/m*3 4.2 C 0 km/h
Sensor: Nr:Datum:Temp:Abs-Feuchte:Windchill:Wind:
Aussen-T/F 1301 02-04-2003 20:37:51 4.4 C 5.81 g/m*3 4.4 C 0 km/h
1302 02-04-2003 20:43:51 4.4 C 5.75 g/m*3 4.4 C 0 km/h
1303 02-04-2003 20:49:51 4.5 C 5.78 g/m*3 4.5 C 0 km/h
1304 02-04-2003 20:55:51 3.6 C 5.45 g/m*3 3.6 C 0 km/h
1305 02-04-2003 21:01:51 3.2 C 5.36 g/m*3 3.2 C 0 km/h
1306 02-04-2003 21:07:51 3.1 C 5.39 g/m*3 3.1 C 0 km/h
1307 02-04-2003 21:13:51 3.1 C 5.51 g/m*3 3.1 C 0 km/h
1308 02-04-2003 21:19:51 3.2 C 5.6 g/m*3 3.2 C 0 km/h
1309 02-04-2003 21:25:51 3.4 C 5.68 g/m*3 3.4 C 0 km/h
1310 02-04-2003 21:31:51 3.3 C 5.7 g/m*3 3.3 C 0 km/h
1311 02-04-2003 21:38:02 3.4 C 5.74 g/m*3 3.4 C 0 km/h
1312 02-04-2003 21:44:02 3.5 C 5.78 g/m*3 3.5 C 0 km/h
1313 02-04-2003 21:50:02 3.5 C 5.78 g/m*3 3.5 C 0 km/h
1314 02-04-2003 21:56:02 3.5 C 5.78 g/m*3 3.5 C 0 km/h
1315 02-04-2003 22:02:02 3.6 C 5.88 g/m*3 3.6 C 0 km/h
1316 02-04-2003 22:08:02 3.7 C 5.92 g/m*3 3.7 C 0 km/h
1317 02-04-2003 22:14:02 3.7 C 5.92 g/m*3 3.7 C 0 km/h
1318 02-04-2003 22:20:02 3.9 C 6 g/m*3 3.9 C 0 km/h
1319 02-04-2003 22:26:02 4 C 6.04 g/m*3 4 C 0 km/h
1320 02-04-2003 22:38:02 4.1 C 6.02 g/m*3 4.1 C 0 km/h
1321 02-04-2003 22:44:02 4.1 C 5.95 g/m*3 4.1 C 0 km/h
1322 02-04-2003 22:50:02 4 C 5.91 g/m*3 4 C 0 km/h
1323 02-04-2003 22:56:02 4 C 5.91 g/m*3 4 C 0 km/h
1324 02-04-2003 23:02:02 3.9 C 5.81 g/m*3 3.9 C 0 km/h
1325 02-04-2003 23:08:02 4 C 5.79 g/m*3 4 C 0 km/h
Sensor: Nr:Datum:Temp:Abs-Feuchte:Windchill:Wind:
Aussen-T/F 1326 02-04-2003 23:14:02 3.9 C 5.81 g/m*3 3.9 C 0 km/h
1327 02-04-2003 23:20:02 3.9 C 5.81 g/m*3 3.9 C 0 km/h
1328 02-04-2003 23:26:02 4 C 5.85 g/m*3 4 C 0 km/h
1329 02-04-2003 23:32:02 3.6 C 5.76 g/m*3 3.6 C 0 km/h
1330 02-04-2003 23:38:02 3.2 C 5.54 g/m*3 3.2 C 0 km/h
1331 02-04-2003 23:44:02 3.1 C 5.51 g/m*3 3.1 C 0 km/h
1332 02-04-2003 23:50:02 3 C 5.47 g/m*3 3 C 0 km/h
1333 02-04-2003 23:56:02 3.1 C 5.51 g/m*3 3.1 C 0 km/h

Legende:
   Min
   Max


Maximal/Minimal-Werte vom 24.03.2003 - 02.04.2003

Sensor Min Max Avg
Temp
(Aussen-T/F)
-0.9 °C
24-03-2003  06:38:14
24.8 °C
28-03-2003  15:54:17
11.08 °C
Abs-Feuchte
(Aussen-T/F)
2.79 g/m*3
01-04-2003  18:34:18
11.77 g/m*3
29-03-2003  17:19:17
6.07 g/m*3
Windchill
(Aussen-T/F)
-0.9 C
24-03-2003  06:38:14
24.8 C
28-03-2003  15:54:17
11.07 C

Die Daten stammen von einer Davis Vantage Pro 2 Wetter-Station und werden unter Linux mit der Software wview2wettercgi und aufbereitet. Alle Angaben erfolgen ohne Gewähr für ihre Vollständigkeit oder Richtigkeit.
Kontakt: Rainer Krienke krienke@uni-koblenz.de . Meine Webseiten an der Uni Koblenz oder privat.
Version: $Revision: 0.78 $